<?xml version="1.0" encoding="UTF-8" standalone="no" ?>
<gpx xmlns="http://www.topografix.com/GPX/1/1" xmlns:xsi="http://www.w3.org/2001/XMLSchema-instance" xsi:schemaLocation="http://www.topografix.com/GPX/1/1 http://www.topografix.com/GPX/1/1/gpx.xsd" version="1.1" creator="VisuGPX - https://www.visugpx.com">
  <metadata>
    <name>VTT randonnée d'Arthez-de-Béarn</name>
    <desc><![CDATA[soleil terrain légèrement boue]]></desc>
  </metadata>
  <trk>
    <name><![CDATA[ACTIVE LOG 001]]></name>
    <trkseg>
      <trkpt lat="43.45885" lon="-0.61619">
        <ele>29.45752</ele>
        <time>2011-05-15T06:33:28Z</time>
      </trkpt>
      <trkpt lat="43.45885" lon="-0.61619">
        <ele>29.45752</ele>
        <time>2011-05-15T06:33:29Z</time>
      </trkpt>
      <trkpt lat="43.45885" lon="-0.61619">
        <ele>30.418823</ele>
        <time>2011-05-15T06:33:31Z</time>
      </trkpt>
      <trkpt lat="43.45885" lon="-0.61619">
        <ele>33.783447</ele>
        <time>2011-05-15T06:33:32Z</time>
      </trkpt>
      <trkpt lat="43.45885" lon="-0.61619">
        <ele>37.148071</ele>
        <time>2011-05-15T06:33:33Z</time>
      </trkpt>
      <trkpt lat="43.45885" lon="-0.61619">
        <ele>40.512817</ele>
        <time>2011-05-15T06:33:34Z</time>
      </trkpt>
      <trkpt lat="43.45885" lon="-0.61619">
        <ele>46.76123</ele>
        <time>2011-05-15T06:33:36Z</time>
      </trkpt>
      <trkpt lat="43.45885" lon="-0.61619">
        <ele>52.529175</ele>
        <time>2011-05-15T06:33:38Z</time>
      </trkpt>
      <trkpt lat="43.45885" lon="-0.61619">
        <ele>57.816528</ele>
        <time>2011-05-15T06:33:40Z</time>
      </trkpt>
      <trkpt lat="43.45885" lon="-0.6162">
        <ele>60.700317</ele>
        <time>2011-05-15T06:33:42Z</time>
      </trkpt>
      <trkpt lat="43.45885" lon="-0.6162">
        <ele>65.987671</ele>
        <time>2011-05-15T06:33:43Z</time>
      </trkpt>
      <trkpt lat="43.45885" lon="-0.6162">
        <ele>69.832886</ele>
        <time>2011-05-15T06:33:45Z</time>
      </trkpt>
      <trkpt lat="43.45885" lon="-0.61619">
        <ele>74.158813</ele>
        <time>2011-05-15T06:33:47Z</time>
      </trkpt>
      <trkpt lat="43.45885" lon="-0.61619">
        <ele>77.523438</ele>
        <time>2011-05-15T06:33:49Z</time>
      </trkpt>
      <trkpt lat="43.45885" lon="-0.6162">
        <ele>81.368774</ele>
        <time>2011-05-15T06:33:51Z</time>
      </trkpt>
      <trkpt lat="43.45885" lon="-0.6162">
        <ele>84.733398</ele>
        <time>2011-05-15T06:33:53Z</time>
      </trkpt>
      <trkpt lat="43.45886" lon="-0.61621">
        <ele>84.733398</ele>
        <time>2011-05-15T06:33:54Z</time>
      </trkpt>
      <trkpt lat="43.45886" lon="-0.61621">
        <ele>88.578735</ele>
        <time>2011-05-15T06:33:55Z</time>
      </trkpt>
      <trkpt lat="43.45886" lon="-0.61621">
        <ele>92.904541</ele>
        <time>2011-05-15T06:33:58Z</time>
      </trkpt>
      <trkpt lat="43.45886" lon="-0.61622">
        <ele>96.269287</ele>
        <time>2011-05-15T06:34:01Z</time>
      </trkpt>
      <trkpt lat="43.45887" lon="-0.61622">
        <ele>100.114502</ele>
        <time>2011-05-15T06:34:04Z</time>
      </trkpt>
      <trkpt lat="43.45887" lon="-0.61623">
        <ele>103.479004</ele>
        <time>2011-05-15T06:34:07Z</time>
      </trkpt>
      <trkpt lat="43.45887" lon="-0.61623">
        <ele>106.843628</ele>
        <time>2011-05-15T06:34:10Z</time>
      </trkpt>
      <trkpt lat="43.45887" lon="-0.61624">
        <ele>107.324341</ele>
        <time>2011-05-15T06:34:11Z</time>
      </trkpt>
      <trkpt lat="43.45887" lon="-0.61624">
        <ele>108.766235</ele>
        <time>2011-05-15T06:34:13Z</time>
      </trkpt>
      <trkpt lat="43.45886" lon="-0.61615">
        <ele>112.130981</ele>
        <time>2011-05-15T06:34:17Z</time>
      </trkpt>
      <trkpt lat="43.45885" lon="-0.61611">
        <ele>114.053589</ele>
        <time>2011-05-15T06:34:18Z</time>
      </trkpt>
      <trkpt lat="43.45872" lon="-0.6161">
        <ele>117.418213</ele>
        <time>2011-05-15T06:34:22Z</time>
      </trkpt>
      <trkpt lat="43.45869" lon="-0.61613">
        <ele>117.898804</ele>
        <time>2011-05-15T06:34:23Z</time>
      </trkpt>
      <trkpt lat="43.45854" lon="-0.61626">
        <ele>120.782837</ele>
        <time>2011-05-15T06:34:27Z</time>
      </trkpt>
      <trkpt lat="43.45846" lon="-0.61632">
        <ele>121.744141</ele>
        <time>2011-05-15T06:34:29Z</time>
      </trkpt>
      <trkpt lat="43.45823" lon="-0.61643">
        <ele>124.147339</ele>
        <time>2011-05-15T06:34:34Z</time>
      </trkpt>
      <trkpt lat="43.45757" lon="-0.61656">
        <ele>125.589355</ele>
        <time>2011-05-15T06:34:48Z</time>
      </trkpt>
      <trkpt lat="43.45681" lon="-0.61702">
        <ele>128.954102</ele>
        <time>2011-05-15T06:35:06Z</time>
      </trkpt>
      <trkpt lat="43.45672" lon="-0.61707">
        <ele>129.434692</ele>
        <time>2011-05-15T06:35:08Z</time>
      </trkpt>
      <trkpt lat="43.45649" lon="-0.61714">
        <ele>130.395996</ele>
        <time>2011-05-15T06:35:13Z</time>
      </trkpt>
      <trkpt lat="43.45628" lon="-0.61721">
        <ele>129.915283</ele>
        <time>2011-05-15T06:35:18Z</time>
      </trkpt>
      <trkpt lat="43.45596" lon="-0.61733">
        <ele>129.915283</ele>
        <time>2011-05-15T06:35:25Z</time>
      </trkpt>
      <trkpt lat="43.45562" lon="-0.61747">
        <ele>132.799316</ele>
        <time>2011-05-15T06:35:36Z</time>
      </trkpt>
      <trkpt lat="43.45557" lon="-0.61753">
        <ele>132.799316</ele>
        <time>2011-05-15T06:35:38Z</time>
      </trkpt>
      <trkpt lat="43.45529" lon="-0.61765">
        <ele>134.721924</ele>
        <time>2011-05-15T06:35:49Z</time>
      </trkpt>
      <trkpt lat="43.4549" lon="-0.61768">
        <ele>137.605835</ele>
        <time>2011-05-15T06:36:02Z</time>
      </trkpt>
      <trkpt lat="43.45466" lon="-0.61771">
        <ele>141.45105</ele>
        <time>2011-05-15T06:36:16Z</time>
      </trkpt>
      <trkpt lat="43.45451" lon="-0.61774">
        <ele>144.335205</ele>
        <time>2011-05-15T06:36:28Z</time>
      </trkpt>
      <trkpt lat="43.45435" lon="-0.61776">
        <ele>146.738403</ele>
        <time>2011-05-15T06:36:40Z</time>
      </trkpt>
      <trkpt lat="43.45419" lon="-0.61775">
        <ele>148.18042</ele>
        <time>2011-05-15T06:36:52Z</time>
      </trkpt>
      <trkpt lat="43.45414" lon="-0.61774">
        <ele>148.661011</ele>
        <time>2011-05-15T06:36:56Z</time>
      </trkpt>
      <trkpt lat="43.45408" lon="-0.61769">
        <ele>148.661011</ele>
        <time>2011-05-15T06:37:00Z</time>
      </trkpt>
      <trkpt lat="43.45396" lon="-0.61724">
        <ele>147.699707</ele>
        <time>2011-05-15T06:37:11Z</time>
      </trkpt>
      <trkpt lat="43.45394" lon="-0.61705">
        <ele>145.7771</ele>
        <time>2011-05-15T06:37:14Z</time>
      </trkpt>
      <trkpt lat="43.45391" lon="-0.61664">
        <ele>146.257812</ele>
        <time>2011-05-15T06:37:24Z</time>
      </trkpt>
      <trkpt lat="43.45382" lon="-0.6163">
        <ele>149.141602</ele>
        <time>2011-05-15T06:37:35Z</time>
      </trkpt>
      <trkpt lat="43.45385" lon="-0.61607">
        <ele>152.506348</ele>
        <time>2011-05-15T06:37:42Z</time>
      </trkpt>
      <trkpt lat="43.45392" lon="-0.61576">
        <ele>155.870972</ele>
        <time>2011-05-15T06:37:53Z</time>
      </trkpt>
      <trkpt lat="43.45407" lon="-0.61547">
        <ele>158.754761</ele>
        <time>2011-05-15T06:38:05Z</time>
      </trkpt>
      <trkpt lat="43.45424" lon="-0.61519">
        <ele>163.080811</ele>
        <time>2011-05-15T06:38:17Z</time>
      </trkpt>
      <trkpt lat="43.45447" lon="-0.61464">
        <ele>164.522705</ele>
        <time>2011-05-15T06:38:36Z</time>
      </trkpt>
      <trkpt lat="43.45445" lon="-0.61397">
        <ele>167.406738</ele>
        <time>2011-05-15T06:38:54Z</time>
      </trkpt>
      <trkpt lat="43.45431" lon="-0.61368">
        <ele>170.290649</ele>
        <time>2011-05-15T06:39:05Z</time>
      </trkpt>
      <trkpt lat="43.45429" lon="-0.6136">
        <ele>171.732666</ele>
        <time>2011-05-15T06:39:08Z</time>
      </trkpt>
      <trkpt lat="43.4543" lon="-0.61294">
        <ele>175.09729</ele>
        <time>2011-05-15T06:39:30Z</time>
      </trkpt>
      <trkpt lat="43.45451" lon="-0.61258">
        <ele>176.539307</ele>
        <time>2011-05-15T06:39:49Z</time>
      </trkpt>
      <trkpt lat="43.45452" lon="-0.61259">
        <ele>177.02002</ele>
        <time>2011-05-15T06:40:11Z</time>
      </trkpt>
      <trkpt lat="43.45452" lon="-0.61254">
        <ele>176.539307</ele>
        <time>2011-05-15T06:40:27Z</time>
      </trkpt>
      <trkpt lat="43.45456" lon="-0.61227">
        <ele>180.384521</ele>
        <time>2011-05-15T06:40:42Z</time>
      </trkpt>
      <trkpt lat="43.45459" lon="-0.61204">
        <ele>183.749023</ele>
        <time>2011-05-15T06:40:56Z</time>
      </trkpt>
      <trkpt lat="43.45458" lon="-0.61193">
        <ele>184.229858</ele>
        <time>2011-05-15T06:41:06Z</time>
      </trkpt>
      <trkpt lat="43.45462" lon="-0.61169">
        <ele>186.152466</ele>
        <time>2011-05-15T06:41:17Z</time>
      </trkpt>
      <trkpt lat="43.45462" lon="-0.61167">
        <ele>186.633179</ele>
        <time>2011-05-15T06:41:18Z</time>
      </trkpt>
      <trkpt lat="43.45463" lon="-0.61156">
        <ele>186.633179</ele>
        <time>2011-05-15T06:41:22Z</time>
      </trkpt>
      <trkpt lat="43.4546" lon="-0.61122">
        <ele>189.036377</ele>
        <time>2011-05-15T06:41:36Z</time>
      </trkpt>
      <trkpt lat="43.45456" lon="-0.61081">
        <ele>190.478394</ele>
        <time>2011-05-15T06:41:47Z</time>
      </trkpt>
      <trkpt lat="43.45461" lon="-0.61047">
        <ele>191.920288</ele>
        <time>2011-05-15T06:41:56Z</time>
      </trkpt>
      <trkpt lat="43.45476" lon="-0.60984">
        <ele>191.920288</ele>
        <time>2011-05-15T06:42:10Z</time>
      </trkpt>
      <trkpt lat="43.45484" lon="-0.60939">
        <ele>189.036377</ele>
        <time>2011-05-15T06:42:21Z</time>
      </trkpt>
      <trkpt lat="43.45482" lon="-0.60935">
        <ele>188.555786</ele>
        <time>2011-05-15T06:42:22Z</time>
      </trkpt>
      <trkpt lat="43.45465" lon="-0.60923">
        <ele>184.710571</ele>
        <time>2011-05-15T06:42:26Z</time>
      </trkpt>
      <trkpt lat="43.45456" lon="-0.6092">
        <ele>183.268433</ele>
        <time>2011-05-15T06:42:28Z</time>
      </trkpt>
      <trkpt lat="43.45421" lon="-0.60894">
        <ele>179.423218</ele>
        <time>2011-05-15T06:42:33Z</time>
      </trkpt>
      <trkpt lat="43.45388" lon="-0.60866">
        <ele>175.577881</ele>
        <time>2011-05-15T06:42:37Z</time>
      </trkpt>
      <trkpt lat="43.45361" lon="-0.60854">
        <ele>169.810059</ele>
        <time>2011-05-15T06:42:41Z</time>
      </trkpt>
      <trkpt lat="43.45341" lon="-0.60848">
        <ele>165.964722</ele>
        <time>2011-05-15T06:42:44Z</time>
      </trkpt>
      <trkpt lat="43.45335" lon="-0.60847">
        <ele>165.964722</ele>
        <time>2011-05-15T06:42:45Z</time>
      </trkpt>
      <trkpt lat="43.45323" lon="-0.60845">
        <ele>163.561523</ele>
        <time>2011-05-15T06:42:47Z</time>
      </trkpt>
      <trkpt lat="43.45302" lon="-0.60836">
        <ele>161.638916</ele>
        <time>2011-05-15T06:42:51Z</time>
      </trkpt>
      <trkpt lat="43.45292" lon="-0.60833">
        <ele>160.67749</ele>
        <time>2011-05-15T06:42:53Z</time>
      </trkpt>
      <trkpt lat="43.45287" lon="-0.60832">
        <ele>160.196899</ele>
        <time>2011-05-15T06:42:54Z</time>
      </trkpt>
      <trkpt lat="43.45253" lon="-0.60848">
        <ele>156.832153</ele>
        <time>2011-05-15T06:42:59Z</time>
      </trkpt>
      <trkpt lat="43.45236" lon="-0.60869">
        <ele>152.506348</ele>
        <time>2011-05-15T06:43:02Z</time>
      </trkpt>
      <trkpt lat="43.45216" lon="-0.60876">
        <ele>148.18042</ele>
        <time>2011-05-15T06:43:07Z</time>
      </trkpt>
      <trkpt lat="43.45209" lon="-0.60873">
        <ele>146.738403</ele>
        <time>2011-05-15T06:43:10Z</time>
      </trkpt>
      <trkpt lat="43.45191" lon="-0.60862">
        <ele>143.85437</ele>
        <time>2011-05-15T06:43:16Z</time>
      </trkpt>
      <trkpt lat="43.45175" lon="-0.60863">
        <ele>142.412476</ele>
        <time>2011-05-15T06:43:26Z</time>
      </trkpt>
      <trkpt lat="43.45178" lon="-0.60858">
        <ele>142.412476</ele>
        <time>2011-05-15T06:43:30Z</time>
      </trkpt>
      <trkpt lat="43.45181" lon="-0.60857">
        <ele>142.893066</ele>
        <time>2011-05-15T06:43:32Z</time>
      </trkpt>
      <trkpt lat="43.45195" lon="-0.60862">
        <ele>143.373657</ele>
        <time>2011-05-15T06:43:39Z</time>
      </trkpt>
      <trkpt lat="43.45201" lon="-0.60864">
        <ele>144.335205</ele>
        <time>2011-05-15T06:43:43Z</time>
      </trkpt>
      <trkpt lat="43.45219" lon="-0.60876">
        <ele>148.18042</ele>
        <time>2011-05-15T06:43:53Z</time>
      </trkpt>
      <trkpt lat="43.45224" lon="-0.60876">
        <ele>148.661011</ele>
        <time>2011-05-15T06:43:55Z</time>
      </trkpt>
      <trkpt lat="43.45234" lon="-0.60872">
        <ele>150.583618</ele>
        <time>2011-05-15T06:44:00Z</time>
      </trkpt>
      <trkpt lat="43.45244" lon="-0.6086">
        <ele>152.506348</ele>
        <time>2011-05-15T06:44:06Z</time>
      </trkpt>
      <trkpt lat="43.45251" lon="-0.60852">
        <ele>153.467651</ele>
        <time>2011-05-15T06:44:10Z</time>
      </trkpt>
      <trkpt lat="43.45257" lon="-0.60845">
        <ele>154.428955</ele>
        <time>2011-05-15T06:44:14Z</time>
      </trkpt>
      <trkpt lat="43.45268" lon="-0.60836">
        <ele>157.312866</ele>
        <time>2011-05-15T06:44:20Z</time>
      </trkpt>
      <trkpt lat="43.45299" lon="-0.60837">
        <ele>160.196899</ele>
        <time>2011-05-15T06:44:35Z</time>
      </trkpt>
      <trkpt lat="43.45329" lon="-0.60847">
        <ele>163.080811</ele>
        <time>2011-05-15T06:44:51Z</time>
      </trkpt>
      <trkpt lat="43.45348" lon="-0.60852">
        <ele>166.445312</ele>
        <time>2011-05-15T06:45:01Z</time>
      </trkpt>
      <trkpt lat="43.4535" lon="-0.60852">
        <ele>166.445312</ele>
        <time>2011-05-15T06:45:02Z</time>
      </trkpt>
      <trkpt lat="43.4537" lon="-0.60858">
        <ele>169.810059</ele>
        <time>2011-05-15T06:45:13Z</time>
      </trkpt>
      <trkpt lat="43.45372" lon="-0.60859">
        <ele>169.810059</ele>
        <time>2011-05-15T06:45:14Z</time>
      </trkpt>
      <trkpt lat="43.45396" lon="-0.60875">
        <ele>173.174683</ele>
        <time>2011-05-15T06:45:28Z</time>
      </trkpt>
      <trkpt lat="43.45419" lon="-0.60894">
        <ele>176.539307</ele>
        <time>2011-05-15T06:45:42Z</time>
      </trkpt>
      <trkpt lat="43.45443" lon="-0.60918">
        <ele>180.384521</ele>
        <time>2011-05-15T06:45:57Z</time>
      </trkpt>
      <trkpt lat="43.45467" lon="-0.60923">
        <ele>184.229858</ele>
        <time>2011-05-15T06:46:11Z</time>
      </trkpt>
      <trkpt lat="43.45487" lon="-0.60913">
        <ele>187.11377</ele>
        <time>2011-05-15T06:46:22Z</time>
      </trkpt>
      <trkpt lat="43.45511" lon="-0.60875">
        <ele>186.152466</ele>
        <time>2011-05-15T06:46:37Z</time>
      </trkpt>
      <trkpt lat="43.45508" lon="-0.60807">
        <ele>187.59436</ele>
        <time>2011-05-15T06:46:53Z</time>
      </trkpt>
      <trkpt lat="43.45501" lon="-0.60766">
        <ele>190.478394</ele>
        <time>2011-05-15T06:47:04Z</time>
      </trkpt>
      <trkpt lat="43.45486" lon="-0.60691">
        <ele>189.516968</ele>
        <time>2011-05-15T06:47:19Z</time>
      </trkpt>
      <trkpt lat="43.45482" lon="-0.6068">
        <ele>189.036377</ele>
        <time>2011-05-15T06:47:21Z</time>
      </trkpt>
      <trkpt lat="43.45461" lon="-0.60649">
        <ele>189.997681</ele>
        <time>2011-05-15T06:47:28Z</time>
      </trkpt>
      <trkpt lat="43.45446" lon="-0.60587">
        <ele>193.362305</ele>
        <time>2011-05-15T06:47:41Z</time>
      </trkpt>
      <trkpt lat="43.4545" lon="-0.60572">
        <ele>194.32373</ele>
        <time>2011-05-15T06:47:46Z</time>
      </trkpt>
      <trkpt lat="43.45453" lon="-0.60564">
        <ele>194.32373</ele>
        <time>2011-05-15T06:47:50Z</time>
      </trkpt>
      <trkpt lat="43.4546" lon="-0.6055">
        <ele>194.804321</ele>
        <time>2011-05-15T06:47:56Z</time>
      </trkpt>
      <trkpt lat="43.45472" lon="-0.60537">
        <ele>198.168945</ele>
        <time>2011-05-15T06:48:04Z</time>
      </trkpt>
      <trkpt lat="43.45488" lon="-0.60521">
        <ele>201.533569</ele>
        <time>2011-05-15T06:48:14Z</time>
      </trkpt>
      <trkpt lat="43.45491" lon="-0.60517">
        <ele>202.014282</ele>
        <time>2011-05-15T06:48:16Z</time>
      </trkpt>
      <trkpt lat="43.45495" lon="-0.60489">
        <ele>201.533569</ele>
        <time>2011-05-15T06:48:25Z</time>
      </trkpt>
      <trkpt lat="43.45506" lon="-0.60479">
        <ele>202.975464</ele>
        <time>2011-05-15T06:48:32Z</time>
      </trkpt>
      <trkpt lat="43.45511" lon="-0.60458">
        <ele>205.378784</ele>
        <time>2011-05-15T06:48:44Z</time>
      </trkpt>
      <trkpt lat="43.45514" lon="-0.6045">
        <ele>205.859497</ele>
        <time>2011-05-15T06:48:50Z</time>
      </trkpt>
      <trkpt lat="43.45505" lon="-0.60419">
        <ele>202.494873</ele>
        <time>2011-05-15T06:49:00Z</time>
      </trkpt>
      <trkpt lat="43.45499" lon="-0.60389">
        <ele>200.572266</ele>
        <time>2011-05-15T06:49:09Z</time>
      </trkpt>
      <trkpt lat="43.45491" lon="-0.60375">
        <ele>198.649536</ele>
        <time>2011-05-15T06:49:15Z</time>
      </trkpt>
      <trkpt lat="43.45483" lon="-0.60355">
        <ele>195.765625</ele>
        <time>2011-05-15T06:49:21Z</time>
      </trkpt>
      <trkpt lat="43.45481" lon="-0.60355">
        <ele>195.284912</ele>
        <time>2011-05-15T06:49:23Z</time>
      </trkpt>
      <trkpt lat="43.4548" lon="-0.60363">
        <ele>193.362305</ele>
        <time>2011-05-15T06:49:26Z</time>
      </trkpt>
      <trkpt lat="43.45479" lon="-0.60367">
        <ele>191.920288</ele>
        <time>2011-05-15T06:49:30Z</time>
      </trkpt>
      <trkpt lat="43.45475" lon="-0.60376">
        <ele>193.362305</ele>
        <time>2011-05-15T06:49:44Z</time>
      </trkpt>
      <trkpt lat="43.45467" lon="-0.60394">
        <ele>189.516968</ele>
        <time>2011-05-15T06:49:51Z</time>
      </trkpt>
      <trkpt lat="43.45449" lon="-0.60423">
        <ele>187.59436</ele>
        <time>2011-05-15T06:50:01Z</time>
      </trkpt>
      <trkpt lat="43.45448" lon="-0.60425">
        <ele>187.11377</ele>
        <time>2011-05-15T06:50:02Z</time>
      </trkpt>
      <trkpt lat="43.45438" lon="-0.60412">
        <ele>183.268433</ele>
        <time>2011-05-15T06:50:11Z</time>
      </trkpt>
      <trkpt lat="43.45437" lon="-0.6041">
        <ele>183.268433</ele>
        <time>2011-05-15T06:50:12Z</time>
      </trkpt>
      <trkpt lat="43.45436" lon="-0.60381">
        <ele>184.229858</ele>
        <time>2011-05-15T06:50:21Z</time>
      </trkpt>
      <trkpt lat="43.45435" lon="-0.60378">
        <ele>183.749023</ele>
        <time>2011-05-15T06:50:22Z</time>
      </trkpt>
      <trkpt lat="43.45426" lon="-0.60363">
        <ele>182.307129</ele>
        <time>2011-05-15T06:50:27Z</time>
      </trkpt>
      <trkpt lat="43.45424" lon="-0.60363">
        <ele>180.865234</ele>
        <time>2011-05-15T06:50:28Z</time>
      </trkpt>
      <trkpt lat="43.45412" lon="-0.60379">
        <ele>179.423218</ele>
        <time>2011-05-15T06:50:35Z</time>
      </trkpt>
      <trkpt lat="43.45414" lon="-0.604">
        <ele>177.981201</ele>
        <time>2011-05-15T06:50:42Z</time>
      </trkpt>
      <trkpt lat="43.45416" lon="-0.60419">
        <ele>176.058594</ele>
        <time>2011-05-15T06:50:47Z</time>
      </trkpt>
      <trkpt lat="43.454" lon="-0.60457">
        <ele>177.50061</ele>
        <time>2011-05-15T06:50:59Z</time>
      </trkpt>
      <trkpt lat="43.45384" lon="-0.60477">
        <ele>178.461914</ele>
        <time>2011-05-15T06:51:09Z</time>
      </trkpt>
      <trkpt lat="43.45379" lon="-0.60485">
        <ele>178.461914</ele>
        <time>2011-05-15T06:51:12Z</time>
      </trkpt>
      <trkpt lat="43.45364" lon="-0.60477">
        <ele>175.577881</ele>
        <time>2011-05-15T06:51:18Z</time>
      </trkpt>
      <trkpt lat="43.45363" lon="-0.60474">
        <ele>175.09729</ele>
        <time>2011-05-15T06:51:19Z</time>
      </trkpt>
      <trkpt lat="43.45335" lon="-0.60477">
        <ele>171.252075</ele>
        <time>2011-05-15T06:51:29Z</time>
      </trkpt>
      <trkpt lat="43.45322" lon="-0.60479">
        <ele>167.406738</ele>
        <time>2011-05-15T06:51:33Z</time>
      </trkpt>
      <trkpt lat="43.45318" lon="-0.60479">
        <ele>167.406738</ele>
        <time>2011-05-15T06:51:34Z</time>
      </trkpt>
      <trkpt lat="43.45313" lon="-0.6048">
        <ele>165.484131</ele>
        <time>2011-05-15T06:51:36Z</time>
      </trkpt>
      <trkpt lat="43.45305" lon="-0.60509">
        <ele>165.484131</ele>
        <time>2011-05-15T06:51:45Z</time>
      </trkpt>
      <trkpt lat="43.45303" lon="-0.60516">
        <ele>165.003418</ele>
        <time>2011-05-15T06:51:47Z</time>
      </trkpt>
      <trkpt lat="43.45301" lon="-0.6056">
        <ele>165.003418</ele>
        <time>2011-05-15T06:51:59Z</time>
      </trkpt>
      <trkpt lat="43.45297" lon="-0.60574">
        <ele>164.522705</ele>
        <time>2011-05-15T06:52:03Z</time>
      </trkpt>
      <trkpt lat="43.45281" lon="-0.60605">
        <ele>161.158203</ele>
        <time>2011-05-15T06:52:13Z</time>
      </trkpt>
      <trkpt lat="43.45278" lon="-0.60607">
        <ele>161.158203</ele>
        <time>2011-05-15T06:52:14Z</time>
      </trkpt>
      <trkpt lat="43.45257" lon="-0.60614">
        <ele>157.312866</ele>
        <time>2011-05-15T06:52:19Z</time>
      </trkpt>
      <trkpt lat="43.45235" lon="-0.60621">
        <ele>153.948364</ele>
        <time>2011-05-15T06:52:24Z</time>
      </trkpt>
      <trkpt lat="43.45206" lon="-0.60628">
        <ele>150.103027</ele>
        <time>2011-05-15T06:52:30Z</time>
      </trkpt>
      <trkpt lat="43.45197" lon="-0.60633">
        <ele>149.141602</ele>
        <time>2011-05-15T06:52:32Z</time>
      </trkpt>
      <trkpt lat="43.45179" lon="-0.60643">
        <ele>144.815796</ele>
        <time>2011-05-15T06:52:36Z</time>
      </trkpt>
      <trkpt lat="43.45173" lon="-0.60647">
        <ele>144.335205</ele>
        <time>2011-05-15T06:52:38Z</time>
      </trkpt>
      <trkpt lat="43.45166" lon="-0.60642">
        <ele>143.85437</ele>
        <time>2011-05-15T06:52:42Z</time>
      </trkpt>
      <trkpt lat="43.45164" lon="-0.6056">
        <ele>143.373657</ele>
        <time>2011-05-15T06:52:58Z</time>
      </trkpt>
      <trkpt lat="43.45157" lon="-0.60462">
        <ele>143.85437</ele>
        <time>2011-05-15T06:53:15Z</time>
      </trkpt>
      <trkpt lat="43.45148" lon="-0.60376">
        <ele>144.335205</ele>
        <time>2011-05-15T06:53:33Z</time>
      </trkpt>
      <trkpt lat="43.45139" lon="-0.60281">
        <ele>143.373657</ele>
        <time>2011-05-15T06:53:49Z</time>
      </trkpt>
      <trkpt lat="43.45138" lon="-0.60213">
        <ele>144.335205</ele>
        <time>2011-05-15T06:54:02Z</time>
      </trkpt>
      <trkpt lat="43.45136" lon="-0.60198">
        <ele>145.7771</ele>
        <time>2011-05-15T06:54:05Z</time>
      </trkpt>
      <trkpt lat="43.45134" lon="-0.60165">
        <ele>147.699707</ele>
        <time>2011-05-15T06:54:13Z</time>
      </trkpt>
      <trkpt lat="43.45185" lon="-0.60125">
        <ele>148.18042</ele>
        <time>2011-05-15T06:54:29Z</time>
      </trkpt>
      <trkpt lat="43.45219" lon="-0.60098">
        <ele>148.661011</ele>
        <time>2011-05-15T06:54:39Z</time>
      </trkpt>
      <trkpt lat="43.4522" lon="-0.60038">
        <ele>148.18042</ele>
        <time>2011-05-15T06:54:50Z</time>
      </trkpt>
      <trkpt lat="43.45204" lon="-0.5998">
        <ele>150.583618</ele>
        <time>2011-05-15T06:55:02Z</time>
      </trkpt>
      <trkpt lat="43.45207" lon="-0.59923">
        <ele>153.948364</ele>
        <time>2011-05-15T06:55:16Z</time>
      </trkpt>
      <trkpt lat="43.45205" lon="-0.5991">
        <ele>153.948364</ele>
        <time>2011-05-15T06:55:22Z</time>
      </trkpt>
      <trkpt lat="43.45197" lon="-0.5991">
        <ele>152.986938</ele>
        <time>2011-05-15T06:55:26Z</time>
      </trkpt>
      <trkpt lat="43.45159" lon="-0.59929">
        <ele>150.583618</ele>
        <time>2011-05-15T06:55:36Z</time>
      </trkpt>
      <trkpt lat="43.45103" lon="-0.59957">
        <ele>146.257812</ele>
        <time>2011-05-15T06:55:49Z</time>
      </trkpt>
      <trkpt lat="43.45098" lon="-0.5996">
        <ele>146.257812</ele>
        <time>2011-05-15T06:55:50Z</time>
      </trkpt>
      <trkpt lat="43.45033" lon="-0.5999">
        <ele>142.893066</ele>
        <time>2011-05-15T06:56:04Z</time>
      </trkpt>
      <trkpt lat="43.4499" lon="-0.60009">
        <ele>140.009155</ele>
        <time>2011-05-15T06:56:12Z</time>
      </trkpt>
      <trkpt lat="43.44985" lon="-0.60012">
        <ele>139.528442</ele>
        <time>2011-05-15T06:56:13Z</time>
      </trkpt>
      <trkpt lat="43.44976" lon="-0.60044">
        <ele>137.125244</ele>
        <time>2011-05-15T06:56:18Z</time>
      </trkpt>
      <trkpt lat="43.44962" lon="-0.60091">
        <ele>135.683105</ele>
        <time>2011-05-15T06:56:26Z</time>
      </trkpt>
      <trkpt lat="43.44912" lon="-0.60158">
        <ele>136.16394</ele>
        <time>2011-05-15T06:56:43Z</time>
      </trkpt>
      <trkpt lat="43.44882" lon="-0.60196">
        <ele>133.279907</ele>
        <time>2011-05-15T06:56:52Z</time>
      </trkpt>
      <trkpt lat="43.44827" lon="-0.60239">
        <ele>130.395996</ele>
        <time>2011-05-15T06:57:04Z</time>
      </trkpt>
      <trkpt lat="43.44791" lon="-0.60281">
        <ele>128.473389</ele>
        <time>2011-05-15T06:57:16Z</time>
      </trkpt>
      <trkpt lat="43.44753" lon="-0.60328">
        <ele>127.992554</ele>
        <time>2011-05-15T06:57:31Z</time>
      </trkpt>
      <trkpt lat="43.44707" lon="-0.60377">
        <ele>126.550659</ele>
        <time>2011-05-15T06:57:48Z</time>
      </trkpt>
      <trkpt lat="43.44662" lon="-0.60426">
        <ele>123.666748</ele>
        <time>2011-05-15T06:58:01Z</time>
      </trkpt>
      <trkpt lat="43.446" lon="-0.60501">
        <ele>122.705444</ele>
        <time>2011-05-15T06:58:22Z</time>
      </trkpt>
      <trkpt lat="43.44557" lon="-0.60563">
        <ele>122.224731</ele>
        <time>2011-05-15T06:58:36Z</time>
      </trkpt>
      <trkpt lat="43.445" lon="-0.60649">
        <ele>121.26355</ele>
        <time>2011-05-15T06:58:52Z</time>
      </trkpt>
      <trkpt lat="43.44429" lon="-0.60736">
        <ele>119.821411</ele>
        <time>2011-05-15T06:59:11Z</time>
      </trkpt>
      <trkpt lat="43.44395" lon="-0.60776">
        <ele>118.860107</ele>
        <time>2011-05-15T06:59:21Z</time>
      </trkpt>
      <trkpt lat="43.44386" lon="-0.60766">
        <ele>118.379395</ele>
        <time>2011-05-15T06:59:26Z</time>
      </trkpt>
      <trkpt lat="43.44364" lon="-0.60668">
        <ele>119.34082</ele>
        <time>2011-05-15T06:59:43Z</time>
      </trkpt>
      <trkpt lat="43.44333" lon="-0.60516">
        <ele>119.821411</ele>
        <time>2011-05-15T07:00:06Z</time>
      </trkpt>
      <trkpt lat="43.44328" lon="-0.60493">
        <ele>118.379395</ele>
        <time>2011-05-15T07:00:09Z</time>
      </trkpt>
      <trkpt lat="43.44311" lon="-0.6042">
        <ele>117.898804</ele>
        <time>2011-05-15T07:00:19Z</time>
      </trkpt>
      <trkpt lat="43.44308" lon="-0.60406">
        <ele>118.379395</ele>
        <time>2011-05-15T07:00:21Z</time>
      </trkpt>
      <trkpt lat="43.4427" lon="-0.60303">
        <ele>120.782837</ele>
        <time>2011-05-15T07:00:39Z</time>
      </trkpt>
      <trkpt lat="43.44263" lon="-0.60286">
        <ele>120.782837</ele>
        <time>2011-05-15T07:00:42Z</time>
      </trkpt>
      <trkpt lat="43.44268" lon="-0.60258">
        <ele>120.782837</ele>
        <time>2011-05-15T07:00:47Z</time>
      </trkpt>
      <trkpt lat="43.44287" lon="-0.60237">
        <ele>121.26355</ele>
        <time>2011-05-15T07:00:52Z</time>
      </trkpt>
      <trkpt lat="43.44286" lon="-0.60205">
        <ele>120.782837</ele>
        <time>2011-05-15T07:00:58Z</time>
      </trkpt>
      <trkpt lat="43.44227" lon="-0.60123">
        <ele>120.782837</ele>
        <time>2011-05-15T07:01:15Z</time>
      </trkpt>
      <trkpt lat="43.44229" lon="-0.60098">
        <ele>121.26355</ele>
        <time>2011-05-15T07:01:20Z</time>
      </trkpt>
      <trkpt lat="43.44271" lon="-0.60071">
        <ele>121.26355</ele>
        <time>2011-05-15T07:01:29Z</time>
      </trkpt>
      <trkpt lat="43.44281" lon="-0.60033">
        <ele>121.744141</ele>
        <time>2011-05-15T07:01:36Z</time>
      </trkpt>
      <trkpt lat="43.44248" lon="-0.59908">
        <ele>122.224731</ele>
        <time>2011-05-15T07:01:57Z</time>
      </trkpt>
      <trkpt lat="43.44224" lon="-0.59824">
        <ele>121.744141</ele>
        <time>2011-05-15T07:02:11Z</time>
      </trkpt>
      <trkpt lat="43.44226" lon="-0.59794">
        <ele>121.744141</ele>
        <time>2011-05-15T07:02:16Z</time>
      </trkpt>
      <trkpt lat="43.44257" lon="-0.59724">
        <ele>122.224731</ele>
        <time>2011-05-15T07:02:29Z</time>
      </trkpt>
      <trkpt lat="43.44258" lon="-0.597">
        <ele>122.224731</ele>
        <time>2011-05-15T07:02:33Z</time>
      </trkpt>
      <trkpt lat="43.44251" lon="-0.59662">
        <ele>122.705444</ele>
        <time>2011-05-15T07:02:39Z</time>
      </trkpt>
      <trkpt lat="43.4425" lon="-0.59643">
        <ele>123.186157</ele>
        <time>2011-05-15T07:02:42Z</time>
      </trkpt>
      <trkpt lat="43.44252" lon="-0.59524">
        <ele>124.628052</ele>
        <time>2011-05-15T07:03:01Z</time>
      </trkpt>
      <trkpt lat="43.44252" lon="-0.59518">
        <ele>124.628052</ele>
        <time>2011-05-15T07:03:02Z</time>
      </trkpt>
      <trkpt lat="43.44255" lon="-0.59501">
        <ele>124.147339</ele>
        <time>2011-05-15T07:03:05Z</time>
      </trkpt>
      <trkpt lat="43.44271" lon="-0.59449">
        <ele>126.550659</ele>
        <time>2011-05-15T07:03:15Z</time>
      </trkpt>
      <trkpt lat="43.44278" lon="-0.5942">
        <ele>127.031372</ele>
        <time>2011-05-15T07:03:20Z</time>
      </trkpt>
      <trkpt lat="43.44279" lon="-0.59385">
        <ele>127.031372</ele>
        <time>2011-05-15T07:03:26Z</time>
      </trkpt>
      <trkpt lat="43.44267" lon="-0.59345">
        <ele>128.954102</ele>
        <time>2011-05-15T07:03:36Z</time>
      </trkpt>
      <trkpt lat="43.44256" lon="-0.59351">
        <ele>128.473389</ele>
        <time>2011-05-15T07:03:41Z</time>
      </trkpt>
      <trkpt lat="43.44188" lon="-0.59412">
        <ele>126.550659</ele>
        <time>2011-05-15T07:03:58Z</time>
      </trkpt>
      <trkpt lat="43.44101" lon="-0.59487">
        <ele>124.628052</ele>
        <time>2011-05-15T07:04:16Z</time>
      </trkpt>
      <trkpt lat="43.44044" lon="-0.59511">
        <ele>124.147339</ele>
        <time>2011-05-15T07:04:26Z</time>
      </trkpt>
      <trkpt lat="43.44013" lon="-0.59481">
        <ele>124.147339</ele>
        <time>2011-05-15T07:04:33Z</time>
      </trkpt>
      <trkpt lat="43.44" lon="-0.59453">
        <ele>123.666748</ele>
        <time>2011-05-15T07:04:37Z</time>
      </trkpt>
      <trkpt lat="43.43966" lon="-0.59439">
        <ele>121.744141</ele>
        <time>2011-05-15T07:04:43Z</time>
      </trkpt>
      <trkpt lat="43.43892" lon="-0.59456">
        <ele>120.302124</ele>
        <time>2011-05-15T07:04:54Z</time>
      </trkpt>
      <trkpt lat="43.43827" lon="-0.59435">
        <ele>117.898804</ele>
        <time>2011-05-15T07:05:04Z</time>
      </trkpt>
      <trkpt lat="43.43773" lon="-0.59403">
        <ele>117.898804</ele>
        <time>2011-05-15T07:05:13Z</time>
      </trkpt>
      <trkpt lat="43.43737" lon="-0.59413">
        <ele>117.418213</ele>
        <time>2011-05-15T07:05:20Z</time>
      </trkpt>
      <trkpt lat="43.43734" lon="-0.59429">
        <ele>117.418213</ele>
        <time>2011-05-15T07:05:22Z</time>
      </trkpt>
      <trkpt lat="43.43731" lon="-0.59446">
        <ele>116.9375</ele>
        <time>2011-05-15T07:05:24Z</time>
      </trkpt>
      <trkpt lat="43.43707" lon="-0.59486">
        <ele>117.418213</ele>
        <time>2011-05-15T07:05:31Z</time>
      </trkpt>
      <trkpt lat="43.43659" lon="-0.59516">
        <ele>120.782837</ele>
        <time>2011-05-15T07:05:44Z</time>
      </trkpt>
      <trkpt lat="43.43646" lon="-0.59517">
        <ele>124.147339</ele>
        <time>2011-05-15T07:05:50Z</time>
      </trkpt>
      <trkpt lat="43.43644" lon="-0.59516">
        <ele>124.147339</ele>
        <time>2011-05-15T07:05:51Z</time>
      </trkpt>
      <trkpt lat="43.4364" lon="-0.59514">
        <ele>125.108765</ele>
        <time>2011-05-15T07:05:54Z</time>
      </trkpt>
      <trkpt lat="43.43637" lon="-0.59514">
        <ele>126.550659</ele>
        <time>2011-05-15T07:05:56Z</time>
      </trkpt>
      <trkpt lat="43.43641" lon="-0.59542">
        <ele>127.031372</ele>
        <time>2011-05-15T07:06:05Z</time>
      </trkpt>
      <trkpt lat="43.43644" lon="-0.59551">
        <ele>126.550659</ele>
        <time>2011-05-15T07:06:07Z</time>
      </trkpt>
      <trkpt lat="43.43652" lon="-0.59579">
        <ele>125.108765</ele>
        <time>2011-05-15T07:06:13Z</time>
      </trkpt>
      <trkpt lat="43.43663" lon="-0.59594">
        <ele>124.628052</ele>
        <time>2011-05-15T07:06:16Z</time>
      </trkpt>
      <trkpt lat="43.43678" lon="-0.59606">
        <ele>122.224731</ele>
        <time>2011-05-15T07:06:19Z</time>
      </trkpt>
      <trkpt lat="43.43688" lon="-0.59614">
        <ele>121.26355</ele>
        <time>2011-05-15T07:06:21Z</time>
      </trkpt>
      <trkpt lat="43.43699" lon="-0.5962">
        <ele>119.821411</ele>
        <time>2011-05-15T07:06:23Z</time>
      </trkpt>
      <trkpt lat="43.4371" lon="-0.59673">
        <ele>117.898804</ele>
        <time>2011-05-15T07:06:31Z</time>
      </trkpt>
      <trkpt lat="43.43699" lon="-0.59706">
        <ele>119.34082</ele>
        <time>2011-05-15T07:06:40Z</time>
      </trkpt>
      <trkpt lat="43.43693" lon="-0.5974">
        <ele>119.34082</ele>
        <time>2011-05-15T07:06:52Z</time>
      </trkpt>
      <trkpt lat="43.43694" lon="-0.59768">
        <ele>119.34082</ele>
        <time>2011-05-15T07:07:00Z</time>
      </trkpt>
      <trkpt lat="43.43713" lon="-0.59795">
        <ele>116.9375</ele>
        <time>2011-05-15T07:07:14Z</time>
      </trkpt>
      <trkpt lat="43.43714" lon="-0.59803">
        <ele>117.418213</ele>
        <time>2011-05-15T07:07:17Z</time>
      </trkpt>
      <trkpt lat="43.43715" lon="-0.59824">
        <ele>117.418213</ele>
        <time>2011-05-15T07:07:26Z</time>
      </trkpt>
      <trkpt lat="43.43721" lon="-0.59844">
        <ele>116.9375</ele>
        <time>2011-05-15T07:07:38Z</time>
      </trkpt>
      <trkpt lat="43.43726" lon="-0.59873">
        <ele>116.9375</ele>
        <time>2011-05-15T07:07:52Z</time>
      </trkpt>
      <trkpt lat="43.43725" lon="-0.59892">
        <ele>117.418213</ele>
        <time>2011-05-15T07:08:01Z</time>
      </trkpt>
      <trkpt lat="43.43724" lon="-0.59897">
        <ele>117.898804</ele>
        <time>2011-05-15T07:08:04Z</time>
      </trkpt>
      <trkpt lat="43.43724" lon="-0.59902">
        <ele>117.898804</ele>
        <time>2011-05-15T07:08:07Z</time>
      </trkpt>
      <trkpt lat="43.43729" lon="-0.59925">
        <ele>118.379395</ele>
        <time>2011-05-15T07:08:24Z</time>
      </trkpt>
      <trkpt lat="43.43742" lon="-0.59952">
        <ele>117.898804</ele>
        <time>2011-05-15T07:08:31Z</time>
      </trkpt>
      <trkpt lat="43.43746" lon="-0.59984">
        <ele>117.418213</ele>
        <time>2011-05-15T07:08:43Z</time>
      </trkpt>
      <trkpt lat="43.43751" lon="-0.60012">
        <ele>117.418213</ele>
        <time>2011-05-15T07:09:01Z</time>
      </trkpt>
      <trkpt lat="43.43751" lon="-0.60022">
        <ele>116.456787</ele>
        <time>2011-05-15T07:09:15Z</time>
      </trkpt>
      <trkpt lat="43.43751" lon="-0.60025">
        <ele>117.418213</ele>
        <time>2011-05-15T07:09:26Z</time>
      </trkpt>
      <trkpt lat="43.43754" lon="-0.60066">
        <ele>117.898804</ele>
        <time>2011-05-15T07:09:38Z</time>
      </trkpt>
      <trkpt lat="43.43757" lon="-0.60106">
        <ele>119.34082</ele>
        <time>2011-05-15T07:09:51Z</time>
      </trkpt>
      <trkpt lat="43.43756" lon="-0.60153">
        <ele>120.782837</ele>
        <time>2011-05-15T07:10:03Z</time>
      </trkpt>
      <trkpt lat="43.43754" lon="-0.60184">
        <ele>120.302124</ele>
        <time>2011-05-15T07:10:12Z</time>
      </trkpt>
      <trkpt lat="43.43762" lon="-0.60236">
        <ele>120.782837</ele>
        <time>2011-05-15T07:10:25Z</time>
      </trkpt>
      <trkpt lat="43.43765" lon="-0.60275">
        <ele>120.302124</ele>
        <time>2011-05-15T07:10:34Z</time>
      </trkpt>
      <trkpt lat="43.43764" lon="-0.6028">
        <ele>120.782837</ele>
        <time>2011-05-15T07:10:35Z</time>
      </trkpt>
      <trkpt lat="43.43769" lon="-0.60324">
        <ele>120.302124</ele>
        <time>2011-05-15T07:10:46Z</time>
      </trkpt>
      <trkpt lat="43.43769" lon="-0.60328">
        <ele>119.821411</ele>
        <time>2011-05-15T07:10:47Z</time>
      </trkpt>
      <trkpt lat="43.43766" lon="-0.60373">
        <ele>122.224731</ele>
        <time>2011-05-15T07:10:57Z</time>
      </trkpt>
      <trkpt lat="43.43766" lon="-0.6038">
        <ele>123.666748</ele>
        <time>2011-05-15T07:11:00Z</time>
      </trkpt>
      <trkpt lat="43.43768" lon="-0.60418">
        <ele>124.628052</ele>
        <time>2011-05-15T07:11:11Z</time>
      </trkpt>
      <trkpt lat="43.4377" lon="-0.60464">
        <ele>124.628052</ele>
        <time>2011-05-15T07:11:22Z</time>
      </trkpt>
      <trkpt lat="43.43772" lon="-0.60487">
        <ele>124.628052</ele>
        <time>2011-05-15T07:11:28Z</time>
      </trkpt>
      <trkpt lat="43.43778" lon="-0.60542">
        <ele>125.108765</ele>
        <time>2011-05-15T07:11:40Z</time>
      </trkpt>
      <trkpt lat="43.43777" lon="-0.6058">
        <ele>125.108765</ele>
        <time>2011-05-15T07:11:52Z</time>
      </trkpt>
      <trkpt lat="43.43776" lon="-0.60591">
        <ele>125.108765</ele>
        <time>2011-05-15T07:12:02Z</time>
      </trkpt>
      <trkpt lat="43.43776" lon="-0.60611">
        <ele>126.069946</ele>
        <time>2011-05-15T07:12:15Z</time>
      </trkpt>
      <trkpt lat="43.43776" lon="-0.60612">
        <ele>125.108765</ele>
        <time>2011-05-15T07:12:34Z</time>
      </trkpt>
      <trkpt lat="43.43779" lon="-0.60616">
        <ele>126.069946</ele>
        <time>2011-05-15T07:13:08Z</time>
      </trkpt>
      <trkpt lat="43.4378" lon="-0.60615">
        <ele>125.589355</ele>
        <time>2011-05-15T07:13:09Z</time>
      </trkpt>
      <trkpt lat="43.43792" lon="-0.60625">
        <ele>123.186157</ele>
        <time>2011-05-15T07:13:15Z</time>
      </trkpt>
      <trkpt lat="43.43795" lon="-0.60629">
        <ele>122.705444</ele>
        <time>2011-05-15T07:13:16Z</time>
      </trkpt>
      <trkpt lat="43.43813" lon="-0.60655">
        <ele>119.34082</ele>
        <time>2011-05-15T07:13:22Z</time>
      </trkpt>
      <trkpt lat="43.43815" lon="-0.60659">
        <ele>118.860107</ele>
        <time>2011-05-15T07:13:23Z</time>
      </trkpt>
      <trkpt lat="43.4384" lon="-0.607">
        <ele>116.9375</ele>
        <time>2011-05-15T07:13:34Z</time>
      </trkpt>
      <trkpt lat="43.43843" lon="-0.60703">
        <ele>116.456787</ele>
        <time>2011-05-15T07:13:35Z</time>
      </trkpt>
      <trkpt lat="43.43854" lon="-0.60717">
        <ele>115.976196</ele>
        <time>2011-05-15T07:13:38Z</time>
      </trkpt>
      <trkpt lat="43.43872" lon="-0.60768">
        <ele>116.456787</ele>
        <time>2011-05-15T07:13:49Z</time>
      </trkpt>
      <trkpt lat="43.43887" lon="-0.6081">
        <ele>115.014893</ele>
        <time>2011-05-15T07:13:59Z</time>
      </trkpt>
      <trkpt lat="43.439" lon="-0.6086">
        <ele>115.014893</ele>
        <time>2011-05-15T07:14:09Z</time>
      </trkpt>
      <trkpt lat="43.43904" lon="-0.60901">
        <ele>115.014893</ele>
        <time>2011-05-15T07:14:19Z</time>
      </trkpt>
      <trkpt lat="43.43908" lon="-0.60945">
        <ele>114.53418</ele>
        <time>2011-05-15T07:14:30Z</time>
      </trkpt>
      <trkpt lat="43.43909" lon="-0.60993">
        <ele>114.53418</ele>
        <time>2011-05-15T07:14:41Z</time>
      </trkpt>
      <trkpt lat="43.43925" lon="-0.61013">
        <ele>112.611572</ele>
        <time>2011-05-15T07:14:46Z</time>
      </trkpt>
      <trkpt lat="43.43944" lon="-0.61017">
        <ele>111.650269</ele>
        <time>2011-05-15T07:14:51Z</time>
      </trkpt>
      <trkpt lat="43.43963" lon="-0.6103">
        <ele>110.208252</ele>
        <time>2011-05-15T07:14:55Z</time>
      </trkpt>
      <trkpt lat="43.43981" lon="-0.61075">
        <ele>109.727661</ele>
        <time>2011-05-15T07:15:03Z</time>
      </trkpt>
      <trkpt lat="43.43984" lon="-0.61155">
        <ele>109.246948</ele>
        <time>2011-05-15T07:15:17Z</time>
      </trkpt>
      <trkpt lat="43.44018" lon="-0.61185">
        <ele>109.246948</ele>
        <time>2011-05-15T07:15:28Z</time>
      </trkpt>
      <trkpt lat="43.44075" lon="-0.61214">
        <ele>110.688843</ele>
        <time>2011-05-15T07:15:43Z</time>
      </trkpt>
      <trkpt lat="43.44088" lon="-0.61216">
        <ele>110.688843</ele>
        <time>2011-05-15T07:15:46Z</time>
      </trkpt>
      <trkpt lat="43.44139" lon="-0.61191">
        <ele>112.611572</ele>
        <time>2011-05-15T07:15:59Z</time>
      </trkpt>
      <trkpt lat="43.44234" lon="-0.61166">
        <ele>115.014893</ele>
        <time>2011-05-15T07:16:22Z</time>
      </trkpt>
      <trkpt lat="43.44253" lon="-0.61154">
        <ele>115.495605</ele>
        <time>2011-05-15T07:16:27Z</time>
      </trkpt>
      <trkpt lat="43.44272" lon="-0.61143">
        <ele>114.53418</ele>
        <time>2011-05-15T07:16:33Z</time>
      </trkpt>
      <trkpt lat="43.44317" lon="-0.61153">
        <ele>114.053589</ele>
        <time>2011-05-15T07:16:42Z</time>
      </trkpt>
      <trkpt lat="43.44407" lon="-0.61142">
        <ele>116.456787</ele>
        <time>2011-05-15T07:16:59Z</time>
      </trkpt>
      <trkpt lat="43.44432" lon="-0.61161">
        <ele>115.495605</ele>
        <time>2011-05-15T07:17:05Z</time>
      </trkpt>
      <trkpt lat="43.44442" lon="-0.61178">
        <ele>115.495605</ele>
        <time>2011-05-15T07:17:08Z</time>
      </trkpt>
      <trkpt lat="43.44459" lon="-0.61208">
        <ele>115.014893</ele>
        <time>2011-05-15T07:17:15Z</time>
      </trkpt>
      <trkpt lat="43.44475" lon="-0.61283">
        <ele>116.9375</ele>
        <time>2011-05-15T07:17:31Z</time>
      </trkpt>
      <trkpt lat="43.44486" lon="-0.61362">
        <ele>116.9375</ele>
        <time>2011-05-15T07:17:48Z</time>
      </trkpt>
      <trkpt lat="43.44487" lon="-0.61378">
        <ele>117.418213</ele>
        <time>2011-05-15T07:17:52Z</time>
      </trkpt>
      <trkpt lat="43.44476" lon="-0.61387">
        <ele>116.9375</ele>
        <time>2011-05-15T07:17:56Z</time>
      </trkpt>
      <trkpt lat="43.44402" lon="-0.61422">
        <ele>115.976196</ele>
        <time>2011-05-15T07:18:12Z</time>
      </trkpt>
      <trkpt lat="43.44357" lon="-0.61457">
        <ele>115.014893</ele>
        <time>2011-05-15T07:18:23Z</time>
      </trkpt>
      <trkpt lat="43.44355" lon="-0.61522">
        <ele>114.53418</ele>
        <time>2011-05-15T07:18:33Z</time>
      </trkpt>
      <trkpt lat="43.4433" lon="-0.61536">
        <ele>114.053589</ele>
        <time>2011-05-15T07:18:40Z</time>
      </trkpt>
      <trkpt lat="43.44245" lon="-0.61552">
        <ele>113.092285</ele>
        <time>2011-05-15T07:18:57Z</time>
      </trkpt>
      <trkpt lat="43.44176" lon="-0.61566">
        <ele>109.727661</ele>
        <time>2011-05-15T07:19:09Z</time>
      </trkpt>
      <trkpt lat="43.44159" lon="-0.61569">
        <ele>109.727661</ele>
        <time>2011-05-15T07:19:12Z</time>
      </trkpt>
      <trkpt lat="43.44133" lon="-0.61616">
        <ele>108.766235</ele>
        <time>2011-05-15T07:19:20Z</time>
      </trkpt>
      <trkpt lat="43.44121" lon="-0.61626">
        <ele>107.324341</ele>
        <time>2011-05-15T07:19:23Z</time>
      </trkpt>
      <trkpt lat="43.44117" lon="-0.61626">
        <ele>107.805054</ele>
        <time>2011-05-15T07:19:24Z</time>
      </trkpt>
      <trkpt lat="43.44092" lon="-0.61631">
        <ele>106.843628</ele>
        <time>2011-05-15T07:19:35Z</time>
      </trkpt>
      <trkpt lat="43.44085" lon="-0.61639">
        <ele>106.363037</ele>
        <time>2011-05-15T07:19:43Z</time>
      </trkpt>
      <trkpt lat="43.44087" lon="-0.6165">
        <ele>106.363037</ele>
        <time>2011-05-15T07:19:48Z</time>
      </trkpt>
      <trkpt lat="43.44089" lon="-0.61699">
        <ele>106.363037</ele>
        <time>2011-05-15T07:20:00Z</time>
      </trkpt>
      <trkpt lat="43.4409" lon="-0.61756">
        <ele>105.882446</ele>
        <time>2011-05-15T07:20:14Z</time>
      </trkpt>
      <trkpt lat="43.44092" lon="-0.61787">
        <ele>105.882446</ele>
        <time>2011-05-15T07:20:23Z</time>
      </trkpt>
      <trkpt lat="43.44092" lon="-0.61798">
        <ele>105.882446</ele>
        <time>2011-05-15T07:20:27Z</time>
      </trkpt>
      <trkpt lat="43.44088" lon="-0.61807">
        <ele>106.363037</ele>
        <time>2011-05-15T07:20:31Z</time>
      </trkpt>
      <trkpt lat="43.4408" lon="-0.61822">
        <ele>105.882446</ele>
        <time>2011-05-15T07:20:36Z</time>
      </trkpt>
      <trkpt lat="43.44077" lon="-0.61826">
        <ele>105.882446</ele>
        <time>2011-05-15T07:20:38Z</time>
      </trkpt>
      <trkpt lat="43.44089" lon="-0.61852">
        <ele>106.363037</ele>
        <time>2011-05-15T07:20:47Z</time>
      </trkpt>
      <trkpt lat="43.44102" lon="-0.61853">
        <ele>105.882446</ele>
        <time>2011-05-15T07:20:53Z</time>
      </trkpt>
      <trkpt lat="43.44113" lon="-0.61853">
        <ele>105.401733</ele>
        <time>2011-05-15T07:20:57Z</time>
      </trkpt>
      <trkpt lat="43.44118" lon="-0.61862">
        <ele>105.401733</ele>
        <time>2011-05-15T07:21:01Z</time>
      </trkpt>
      <trkpt lat="43.44131" lon="-0.6189">
        <ele>105.401733</ele>
        <time>2011-05-15T07:21:13Z</time>
      </trkpt>
      <trkpt lat="43.44139" lon="-0.61907">
        <ele>105.401733</ele>
        <time>2011-05-15T07:21:20Z</time>
      </trkpt>
      <trkpt lat="43.44152" lon="-0.61904">
        <ele>105.882446</ele>
        <time>2011-05-15T07:21:27Z</time>
      </trkpt>
      <trkpt lat="43.44165" lon="-0.61917">
        <ele>105.401733</ele>
        <time>2011-05-15T07:21:33Z</time>
      </trkpt>
      <trkpt lat="43.44178" lon="-0.61927">
        <ele>105.882446</ele>
        <time>2011-05-15T07:21:44Z</time>
      </trkpt>
      <trkpt lat="43.44177" lon="-0.61933">
        <ele>105.401733</ele>
        <time>2011-05-15T07:21:47Z</time>
      </trkpt>
      <trkpt lat="43.44186" lon="-0.6195">
        <ele>104.921021</ele>
        <time>2011-05-15T07:21:56Z</time>
      </trkpt>
      <trkpt lat="43.44191" lon="-0.61961">
        <ele>106.843628</ele>
        <time>2011-05-15T07:22:07Z</time>
      </trkpt>
      <trkpt lat="43.442" lon="-0.61976">
        <ele>107.324341</ele>
        <time>2011-05-15T07:22:17Z</time>
      </trkpt>
      <trkpt lat="43.44202" lon="-0.61976">
        <ele>106.843628</ele>
        <time>2011-05-15T07:22:19Z</time>
      </trkpt>
      <trkpt lat="43.44211" lon="-0.61951">
        <ele>108.285645</ele>
        <time>2011-05-15T07:22:30Z</time>
      </trkpt>
      <trkpt lat="43.44213" lon="-0.61951">
        <ele>107.324341</ele>
        <time>2011-05-15T07:22:31Z</time>
      </trkpt>
      <trkpt lat="43.44226" lon="-0.61976">
        <ele>108.285645</ele>
        <time>2011-05-15T07:22:41Z</time>
      </trkpt>
      <trkpt lat="43.44227" lon="-0.6198">
        <ele>108.285645</ele>
        <time>2011-05-15T07:22:42Z</time>
      </trkpt>
      <trkpt lat="43.44228" lon="-0.62005">
        <ele>108.285645</ele>
        <time>2011-05-15T07:22:49Z</time>
      </trkpt>
      <trkpt lat="43.44229" lon="-0.62012">
        <ele>107.805054</ele>
        <time>2011-05-15T07:22:51Z</time>
      </trkpt>
      <trkpt lat="43.44217" lon="-0.62021">
        <ele>108.285645</ele>
        <time>2011-05-15T07:22:57Z</time>
      </trkpt>
      <trkpt lat="43.44191" lon="-0.62024">
        <ele>105.882446</ele>
        <time>2011-05-15T07:23:05Z</time>
      </trkpt>
      <trkpt lat="43.44144" lon="-0.62021">
        <ele>105.401733</ele>
        <time>2011-05-15T07:23:18Z</time>
      </trkpt>
      <trkpt lat="43.44141" lon="-0.62022">
        <ele>105.401733</ele>
        <time>2011-05-15T07:23:19Z</time>
      </trkpt>
      <trkpt lat="43.44135" lon="-0.62036">
        <ele>104.921021</ele>
        <time>2011-05-15T07:23:24Z</time>
      </trkpt>
      <trkpt lat="43.44135" lon="-0.62094">
        <ele>104.921021</ele>
        <time>2011-05-15T07:23:36Z</time>
      </trkpt>
      <trkpt lat="43.4411" lon="-0.62144">
        <ele>104.44043</ele>
        <time>2011-05-15T07:23:47Z</time>
      </trkpt>
      <trkpt lat="43.44114" lon="-0.62168">
        <ele>105.401733</ele>
        <time>2011-05-15T07:23:51Z</time>
      </trkpt>
      <trkpt lat="43.44117" lon="-0.6218">
        <ele>105.401733</ele>
        <time>2011-05-15T07:23:53Z</time>
      </trkpt>
      <trkpt lat="43.44117" lon="-0.62233">
        <ele>107.324341</ele>
        <time>2011-05-15T07:24:04Z</time>
      </trkpt>
      <trkpt lat="43.44109" lon="-0.62243">
        <ele>107.805054</ele>
        <time>2011-05-15T07:24:09Z</time>
      </trkpt>
      <trkpt lat="43.44106" lon="-0.62248">
        <ele>106.363037</ele>
        <time>2011-05-15T07:24:11Z</time>
      </trkpt>
      <trkpt lat="43.44072" lon="-0.6231">
        <ele>107.324341</ele>
        <time>2011-05-15T07:24:25Z</time>
      </trkpt>
      <trkpt lat="43.44039" lon="-0.62364">
        <ele>106.363037</ele>
        <time>2011-05-15T07:24:36Z</time>
      </trkpt>
      <trkpt lat="43.44037" lon="-0.62412">
        <ele>105.401733</ele>
        <time>2011-05-15T07:24:44Z</time>
      </trkpt>
      <trkpt lat="43.44036" lon="-0.62418">
        <ele>105.882446</ele>
        <time>2011-05-15T07:24:45Z</time>
      </trkpt>
      <trkpt lat="43.44029" lon="-0.62444">
        <ele>105.401733</ele>
        <time>2011-05-15T07:24:50Z</time>
      </trkpt>
      <trkpt lat="43.44011" lon="-0.62547">
        <ele>106.363037</ele>
        <time>2011-05-15T07:25:09Z</time>
      </trkpt>
      <trkpt lat="43.44011" lon="-0.62568">
        <ele>105.882446</ele>
        <time>2011-05-15T07:25:13Z</time>
      </trkpt>
      <trkpt lat="43.44042" lon="-0.62616">
        <ele>107.324341</ele>
        <time>2011-05-15T07:25:27Z</time>
      </trkpt>
      <trkpt lat="43.44091" lon="-0.62677">
        <ele>109.727661</ele>
        <time>2011-05-15T07:25:46Z</time>
      </trkpt>
      <trkpt lat="43.44122" lon="-0.62724">
        <ele>109.727661</ele>
        <time>2011-05-15T07:25:59Z</time>
      </trkpt>
      <trkpt lat="43.44141" lon="-0.62827">
        <ele>109.727661</ele>
        <time>2011-05-15T07:26:16Z</time>
      </trkpt>
      <trkpt lat="43.44143" lon="-0.62944">
        <ele>109.246948</ele>
        <time>2011-05-15T07:26:34Z</time>
      </trkpt>
      <trkpt lat="43.44146" lon="-0.62969">
        <ele>109.727661</ele>
        <time>2011-05-15T07:26:39Z</time>
      </trkpt>
      <trkpt lat="43.44159" lon="-0.62973">
        <ele>110.688843</ele>
        <time>2011-05-15T07:26:43Z</time>
      </trkpt>
      <trkpt lat="43.44248" lon="-0.62924">
        <ele>111.169556</ele>
        <time>2011-05-15T07:27:04Z</time>
      </trkpt>
      <trkpt lat="43.44272" lon="-0.62918">
        <ele>111.650269</ele>
        <time>2011-05-15T07:27:09Z</time>
      </trkpt>
      <trkpt lat="43.44303" lon="-0.62902">
        <ele>111.650269</ele>
        <time>2011-05-15T07:27:16Z</time>
      </trkpt>
      <trkpt lat="43.4435" lon="-0.62898">
        <ele>113.092285</ele>
        <time>2011-05-15T07:27:26Z</time>
      </trkpt>
      <trkpt lat="43.44391" lon="-0.62895">
        <ele>114.53418</ele>
        <time>2011-05-15T07:27:35Z</time>
      </trkpt>
      <trkpt lat="43.44404" lon="-0.62916">
        <ele>114.053589</ele>
        <time>2011-05-15T07:27:40Z</time>
      </trkpt>
      <trkpt lat="43.44402" lon="-0.63024">
        <ele>111.650269</ele>
        <time>2011-05-15T07:27:54Z</time>
      </trkpt>
      <trkpt lat="43.44391" lon="-0.63073">
        <ele>111.169556</ele>
        <time>2011-05-15T07:28:00Z</time>
      </trkpt>
      <trkpt lat="43.44378" lon="-0.63093">
        <ele>112.130981</ele>
        <time>2011-05-15T07:28:03Z</time>
      </trkpt>
      <trkpt lat="43.44352" lon="-0.63124">
        <ele>111.169556</ele>
        <time>2011-05-15T07:28:09Z</time>
      </trkpt>
      <trkpt lat="43.44335" lon="-0.63174">
        <ele>112.130981</ele>
        <time>2011-05-15T07:28:17Z</time>
      </trkpt>
      <trkpt lat="43.44337" lon="-0.63369">
        <ele>112.611572</ele>
        <time>2011-05-15T07:28:44Z</time>
      </trkpt>
      <trkpt lat="43.44337" lon="-0.63407">
        <ele>112.130981</ele>
        <time>2011-05-15T07:28:49Z</time>
      </trkpt>
      <trkpt lat="43.44332" lon="-0.63429">
        <ele>110.208252</ele>
        <time>2011-05-15T07:28:52Z</time>
      </trkpt>
      <trkpt lat="43.4431" lon="-0.63437">
        <ele>108.766235</ele>
        <time>2011-05-15T07:28:56Z</time>
      </trkpt>
      <trkpt lat="43.44286" lon="-0.63436">
        <ele>108.766235</ele>
        <time>2011-05-15T07:29:00Z</time>
      </trkpt>
      <trkpt lat="43.44255" lon="-0.63434">
        <ele>108.285645</ele>
        <time>2011-05-15T07:29:05Z</time>
      </trkpt>
      <trkpt lat="43.44243" lon="-0.63432">
        <ele>107.805054</ele>
        <time>2011-05-15T07:29:07Z</time>
      </trkpt>
      <trkpt lat="43.44209" lon="-0.63418">
        <ele>107.805054</ele>
        <time>2011-05-15T07:29:13Z</time>
      </trkpt>
      <trkpt lat="43.44187" lon="-0.63419">
        <ele>107.805054</ele>
        <time>2011-05-15T07:29:17Z</time>
      </trkpt>
      <trkpt lat="43.44173" lon="-0.63431">
        <ele>106.843628</ele>
        <time>2011-05-15T07:29:20Z</time>
      </trkpt>
      <trkpt lat="43.44125" lon="-0.63443">
        <ele>106.363037</ele>
        <time>2011-05-15T07:29:28Z</time>
      </trkpt>
      <trkpt lat="43.44109" lon="-0.63447">
        <ele>106.843628</ele>
        <time>2011-05-15T07:29:31Z</time>
      </trkpt>
      <trkpt lat="43.44086" lon="-0.63487">
        <ele>108.285645</ele>
        <time>2011-05-15T07:29:39Z</time>
      </trkpt>
      <trkpt lat="43.44076" lon="-0.63626">
        <ele>108.285645</ele>
        <time>2011-05-15T07:29:58Z</time>
      </trkpt>
      <trkpt lat="43.44075" lon="-0.6364">
        <ele>107.805054</ele>
        <time>2011-05-15T07:30:00Z</time>
      </trkpt>
      <trkpt lat="43.44055" lon="-0.63667">
        <ele>106.363037</ele>
        <time>2011-05-15T07:30:06Z</time>
      </trkpt>
      <trkpt lat="43.44043" lon="-0.63669">
        <ele>105.401733</ele>
        <time>2011-05-15T07:30:08Z</time>
      </trkpt>
      <trkpt lat="43.44013" lon="-0.63712">
        <ele>104.44043</ele>
        <time>2011-05-15T07:30:14Z</time>
      </trkpt>
      <trkpt lat="43.44006" lon="-0.63752">
        <ele>102.5177</ele>
        <time>2011-05-15T07:30:18Z</time>
      </trkpt>
      <trkpt lat="43.44008" lon="-0.63788">
        <ele>101.556396</ele>
        <time>2011-05-15T07:30:22Z</time>
      </trkpt>
      <trkpt lat="43.44017" lon="-0.63841">
        <ele>100.595093</ele>
        <time>2011-05-15T07:30:28Z</time>
      </trkpt>
      <trkpt lat="43.44009" lon="-0.63958">
        <ele>100.595093</ele>
        <time>2011-05-15T07:30:42Z</time>
      </trkpt>
      <trkpt lat="43.44015" lon="-0.64091">
        <ele>99.633789</ele>
        <time>2011-05-15T07:30:59Z</time>
      </trkpt>
      <trkpt lat="43.44015" lon="-0.64099">
        <ele>100.114502</ele>
        <time>2011-05-15T07:31:00Z</time>
      </trkpt>
      <trkpt lat="43.44024" lon="-0.64125">
        <ele>99.633789</ele>
        <time>2011-05-15T07:31:04Z</time>
      </trkpt>
      <trkpt lat="43.44061" lon="-0.6418">
        <ele>102.037109</ele>
        <time>2011-05-15T07:31:17Z</time>
      </trkpt>
      <trkpt lat="43.44066" lon="-0.6423">
        <ele>102.037109</ele>
        <time>2011-05-15T07:31:24Z</time>
      </trkpt>
      <trkpt lat="43.4407" lon="-0.64269">
        <ele>102.037109</ele>
        <time>2011-05-15T07:31:29Z</time>
      </trkpt>
      <trkpt lat="43.44051" lon="-0.64321">
        <ele>99.153076</ele>
        <time>2011-05-15T07:31:37Z</time>
      </trkpt>
      <trkpt lat="43.4403" lon="-0.64328">
        <ele>98.672485</ele>
        <time>2011-05-15T07:31:40Z</time>
      </trkpt>
      <trkpt lat="43.44003" lon="-0.64328">
        <ele>98.191895</ele>
        <time>2011-05-15T07:31:44Z</time>
      </trkpt>
      <trkpt lat="43.43984" lon="-0.64354">
        <ele>98.191895</ele>
        <time>2011-05-15T07:31:50Z</time>
      </trkpt>
      <trkpt lat="43.43977" lon="-0.64427">
        <ele>99.153076</ele>
        <time>2011-05-15T07:32:01Z</time>
      </trkpt>
      <trkpt lat="43.43966" lon="-0.64454">
        <ele>98.672485</ele>
        <time>2011-05-15T07:32:05Z</time>
      </trkpt>
      <trkpt lat="43.43954" lon="-0.64507">
        <ele>97.711182</ele>
        <time>2011-05-15T07:32:12Z</time>
      </trkpt>
      <trkpt lat="43.43972" lon="-0.64676">
        <ele>96.269287</ele>
        <time>2011-05-15T07:32:33Z</time>
      </trkpt>
      <trkpt lat="43.43973" lon="-0.64746">
        <ele>96.269287</ele>
        <time>2011-05-15T07:32:42Z</time>
      </trkpt>
      <trkpt lat="43.43973" lon="-0.6476">
        <ele>96.269287</ele>
        <time>2011-05-15T07:32:44Z</time>
      </trkpt>
      <trkpt lat="43.43988" lon="-0.64775">
        <ele>96.749878</ele>
        <time>2011-05-15T07:32:50Z</time>
      </trkpt>
      <trkpt lat="43.44027" lon="-0.64738">
        <ele>99.153076</ele>
        <time>2011-05-15T07:33:02Z</time>
      </trkpt>
      <trkpt lat="43.44038" lon="-0.64725">
        <ele>100.595093</ele>
        <time>2011-05-15T07:33:06Z</time>
      </trkpt>
      <trkpt lat="43.44094" lon="-0.64672">
        <ele>103.479004</ele>
        <time>2011-05-15T07:33:23Z</time>
      </trkpt>
      <trkpt lat="43.44098" lon="-0.64669">
        <ele>103.959717</ele>
        <time>2011-05-15T07:33:24Z</time>
      </trkpt>
      <trkpt lat="43.44121" lon="-0.64652">
        <ele>105.882446</ele>
        <time>2011-05-15T07:33:30Z</time>
      </trkpt>
      <trkpt lat="43.44202" lon="-0.64591">
        <ele>106.843628</ele>
        <time>2011-05-15T07:33:49Z</time>
      </trkpt>
      <trkpt lat="43.44289" lon="-0.64519">
        <ele>108.766235</ele>
        <time>2011-05-15T07:34:09Z</time>
      </trkpt>
      <trkpt lat="43.44319" lon="-0.64496">
        <ele>109.246948</ele>
        <time>2011-05-15T07:34:16Z</time>
      </trkpt>
      <trkpt lat="43.44403" lon="-0.64435">
        <ele>110.688843</ele>
        <time>2011-05-15T07:34:35Z</time>
      </trkpt>
      <trkpt lat="43.44487" lon="-0.64371">
        <ele>113.572998</ele>
        <time>2011-05-15T07:34:54Z</time>
      </trkpt>
      <trkpt lat="43.44585" lon="-0.64319">
        <ele>114.53418</ele>
        <time>2011-05-15T07:35:14Z</time>
      </trkpt>
      <trkpt lat="43.44706" lon="-0.64272">
        <ele>116.456787</ele>
        <time>2011-05-15T07:35:38Z</time>
      </trkpt>
      <trkpt lat="43.44791" lon="-0.64249">
        <ele>118.860107</ele>
        <time>2011-05-15T07:35:55Z</time>
      </trkpt>
      <trkpt lat="43.44854" lon="-0.6419">
        <ele>119.821411</ele>
        <time>2011-05-15T07:36:10Z</time>
      </trkpt>
      <trkpt lat="43.4487" lon="-0.64163">
        <ele>119.821411</ele>
        <time>2011-05-15T07:36:15Z</time>
      </trkpt>
      <trkpt lat="43.44891" lon="-0.64141">
        <ele>119.821411</ele>
        <time>2011-05-15T07:36:20Z</time>
      </trkpt>
      <trkpt lat="43.44967" lon="-0.64102">
        <ele>121.744141</ele>
        <time>2011-05-15T07:36:37Z</time>
      </trkpt>
      <trkpt lat="43.45024" lon="-0.64051">
        <ele>125.589355</ele>
        <time>2011-05-15T07:36:53Z</time>
      </trkpt>
      <trkpt lat="43.45078" lon="-0.63997">
        <ele>128.473389</ele>
        <time>2011-05-15T07:37:11Z</time>
      </trkpt>
      <trkpt lat="43.4512" lon="-0.63963">
        <ele>131.3573</ele>
        <time>2011-05-15T07:37:26Z</time>
      </trkpt>
      <trkpt lat="43.45121" lon="-0.63928">
        <ele>130.876709</ele>
        <time>2011-05-15T07:37:34Z</time>
      </trkpt>
      <trkpt lat="43.45108" lon="-0.63833">
        <ele>127.992554</ele>
        <time>2011-05-15T07:37:47Z</time>
      </trkpt>
      <trkpt lat="43.45097" lon="-0.6375">
        <ele>129.915283</ele>
        <time>2011-05-15T07:38:01Z</time>
      </trkpt>
      <trkpt lat="43.45093" lon="-0.63726">
        <ele>130.876709</ele>
        <time>2011-05-15T07:38:05Z</time>
      </trkpt>
      <trkpt lat="43.45081" lon="-0.63654">
        <ele>130.876709</ele>
        <time>2011-05-15T07:38:16Z</time>
      </trkpt>
      <trkpt lat="43.45077" lon="-0.63569">
        <ele>127.511963</ele>
        <time>2011-05-15T07:38:26Z</time>
      </trkpt>
      <trkpt lat="43.45078" lon="-0.6355">
        <ele>127.031372</ele>
        <time>2011-05-15T07:38:28Z</time>
      </trkpt>
      <trkpt lat="43.45108" lon="-0.63503">
        <ele>127.992554</ele>
        <time>2011-05-15T07:38:36Z</time>
      </trkpt>
      <trkpt lat="43.45123" lon="-0.63496">
        <ele>129.434692</ele>
        <time>2011-05-15T07:38:39Z</time>
      </trkpt>
      <trkpt lat="43.45169" lon="-0.63477">
        <ele>132.318604</ele>
        <time>2011-05-15T07:38:49Z</time>
      </trkpt>
      <trkpt lat="43.45216" lon="-0.6345">
        <ele>132.799316</ele>
        <time>2011-05-15T07:39:00Z</time>
      </trkpt>
      <trkpt lat="43.45235" lon="-0.63458">
        <ele>133.760498</ele>
        <time>2011-05-15T07:39:06Z</time>
      </trkpt>
      <trkpt lat="43.45243" lon="-0.63506">
        <ele>137.605835</ele>
        <time>2011-05-15T07:39:17Z</time>
      </trkpt>
      <trkpt lat="43.45254" lon="-0.63571">
        <ele>139.047852</ele>
        <time>2011-05-15T07:39:33Z</time>
      </trkpt>
      <trkpt lat="43.45279" lon="-0.63604">
        <ele>140.970459</ele>
        <time>2011-05-15T07:39:45Z</time>
      </trkpt>
      <trkpt lat="43.4529" lon="-0.63612">
        <ele>142.893066</ele>
        <time>2011-05-15T07:39:49Z</time>
      </trkpt>
      <trkpt lat="43.45325" lon="-0.63608">
        <ele>145.7771</ele>
        <time>2011-05-15T07:40:02Z</time>
      </trkpt>
      <trkpt lat="43.4535" lon="-0.63599">
        <ele>148.18042</ele>
        <time>2011-05-15T07:40:14Z</time>
      </trkpt>
      <trkpt lat="43.4537" lon="-0.63605">
        <ele>152.025757</ele>
        <time>2011-05-15T07:40:24Z</time>
      </trkpt>
      <trkpt lat="43.45372" lon="-0.63606">
        <ele>151.544922</ele>
        <time>2011-05-15T07:40:25Z</time>
      </trkpt>
      <trkpt lat="43.45405" lon="-0.63615">
        <ele>154.909546</ele>
        <time>2011-05-15T07:40:40Z</time>
      </trkpt>
      <trkpt lat="43.45431" lon="-0.636">
        <ele>158.27417</ele>
        <time>2011-05-15T07:40:54Z</time>
      </trkpt>
      <trkpt lat="43.45454" lon="-0.63584">
        <ele>162.119507</ele>
        <time>2011-05-15T07:41:09Z</time>
      </trkpt>
      <trkpt lat="43.45469" lon="-0.63577">
        <ele>165.003418</ele>
        <time>2011-05-15T07:41:19Z</time>
      </trkpt>
      <trkpt lat="43.45496" lon="-0.63568">
        <ele>168.368042</ele>
        <time>2011-05-15T07:41:35Z</time>
      </trkpt>
      <trkpt lat="43.45512" lon="-0.63563">
        <ele>171.252075</ele>
        <time>2011-05-15T07:41:44Z</time>
      </trkpt>
      <trkpt lat="43.45539" lon="-0.63557">
        <ele>173.174683</ele>
        <time>2011-05-15T07:41:57Z</time>
      </trkpt>
      <trkpt lat="43.45562" lon="-0.63566">
        <ele>175.577881</ele>
        <time>2011-05-15T07:42:09Z</time>
      </trkpt>
      <trkpt lat="43.45582" lon="-0.63583">
        <ele>177.981201</ele>
        <time>2011-05-15T07:42:23Z</time>
      </trkpt>
      <trkpt lat="43.45598" lon="-0.63592">
        <ele>180.384521</ele>
        <time>2011-05-15T07:42:34Z</time>
      </trkpt>
      <trkpt lat="43.45622" lon="-0.63594">
        <ele>183.749023</ele>
        <time>2011-05-15T07:42:47Z</time>
      </trkpt>
      <trkpt lat="43.45641" lon="-0.63594">
        <ele>186.633179</ele>
        <time>2011-05-15T07:42:58Z</time>
      </trkpt>
      <trkpt lat="43.45662" lon="-0.63593">
        <ele>189.516968</ele>
        <time>2011-05-15T07:43:10Z</time>
      </trkpt>
      <trkpt lat="43.45687" lon="-0.63588">
        <ele>191.439575</ele>
        <time>2011-05-15T07:43:23Z</time>
      </trkpt>
      <trkpt lat="43.45704" lon="-0.63585">
        <ele>194.804321</ele>
        <time>2011-05-15T07:43:36Z</time>
      </trkpt>
      <trkpt lat="43.45727" lon="-0.63584">
        <ele>198.168945</ele>
        <time>2011-05-15T07:43:49Z</time>
      </trkpt>
      <trkpt lat="43.45754" lon="-0.63594">
        <ele>201.052856</ele>
        <time>2011-05-15T07:44:02Z</time>
      </trkpt>
      <trkpt lat="43.45778" lon="-0.63584">
        <ele>203.93689</ele>
        <time>2011-05-15T07:44:16Z</time>
      </trkpt>
      <trkpt lat="43.45798" lon="-0.63549">
        <ele>206.340088</ele>
        <time>2011-05-15T07:44:29Z</time>
      </trkpt>
      <trkpt lat="43.45833" lon="-0.63542">
        <ele>208.262817</ele>
        <time>2011-05-15T07:44:43Z</time>
      </trkpt>
      <trkpt lat="43.45878" lon="-0.63541">
        <ele>210.666016</ele>
        <time>2011-05-15T07:44:59Z</time>
      </trkpt>
      <trkpt lat="43.45929" lon="-0.63529">
        <ele>213.550049</ele>
        <time>2011-05-15T07:45:14Z</time>
      </trkpt>
      <trkpt lat="43.45981" lon="-0.63513">
        <ele>214.03064</ele>
        <time>2011-05-15T07:45:29Z</time>
      </trkpt>
      <trkpt lat="43.46017" lon="-0.6351">
        <ele>213.069336</ele>
        <time>2011-05-15T07:45:36Z</time>
      </trkpt>
      <trkpt lat="43.46043" lon="-0.63492">
        <ele>212.108032</ele>
        <time>2011-05-15T07:45:42Z</time>
      </trkpt>
      <trkpt lat="43.46059" lon="-0.63481">
        <ele>212.588623</ele>
        <time>2011-05-15T07:45:46Z</time>
      </trkpt>
      <trkpt lat="43.46164" lon="-0.63444">
        <ele>214.03064</ele>
        <time>2011-05-15T07:46:09Z</time>
      </trkpt>
      <trkpt lat="43.46206" lon="-0.63416">
        <ele>216.914673</ele>
        <time>2011-05-15T07:46:20Z</time>
      </trkpt>
      <trkpt lat="43.46256" lon="-0.63351">
        <ele>218.83728</ele>
        <time>2011-05-15T07:46:36Z</time>
      </trkpt>
      <trkpt lat="43.46304" lon="-0.63295">
        <ele>218.356567</ele>
        <time>2011-05-15T07:46:49Z</time>
      </trkpt>
      <trkpt lat="43.4637" lon="-0.63217">
        <ele>217.875977</ele>
        <time>2011-05-15T07:47:05Z</time>
      </trkpt>
      <trkpt lat="43.46425" lon="-0.63135">
        <ele>220.759888</ele>
        <time>2011-05-15T07:47:21Z</time>
      </trkpt>
      <trkpt lat="43.46471" lon="-0.6308">
        <ele>224.124512</ele>
        <time>2011-05-15T07:47:36Z</time>
      </trkpt>
      <trkpt lat="43.46506" lon="-0.63011">
        <ele>225.085938</ele>
        <time>2011-05-15T07:47:52Z</time>
      </trkpt>
      <trkpt lat="43.46521" lon="-0.62959">
        <ele>226.047119</ele>
        <time>2011-05-15T07:48:02Z</time>
      </trkpt>
      <trkpt lat="43.46537" lon="-0.62975">
        <ele>227.008545</ele>
        <time>2011-05-15T07:48:08Z</time>
      </trkpt>
      <trkpt lat="43.46561" lon="-0.63022">
        <ele>228.450439</ele>
        <time>2011-05-15T07:48:17Z</time>
      </trkpt>
      <trkpt lat="43.46613" lon="-0.63109">
        <ele>230.85376</ele>
        <time>2011-05-15T07:48:35Z</time>
      </trkpt>
      <trkpt lat="43.46662" lon="-0.6317">
        <ele>232.776489</ele>
        <time>2011-05-15T07:48:49Z</time>
      </trkpt>
      <trkpt lat="43.46745" lon="-0.63239">
        <ele>232.776489</ele>
        <time>2011-05-15T07:49:07Z</time>
      </trkpt>
      <trkpt lat="43.46826" lon="-0.63338">
        <ele>231.334351</ele>
        <time>2011-05-15T07:49:24Z</time>
      </trkpt>
      <trkpt lat="43.46907" lon="-0.63439">
        <ele>227.969727</ele>
        <time>2011-05-15T07:49:40Z</time>
      </trkpt>
      <trkpt lat="43.4699" lon="-0.63564">
        <ele>227.008545</ele>
        <time>2011-05-15T07:49:58Z</time>
      </trkpt>
      <trkpt lat="43.47053" lon="-0.63706">
        <ele>227.489136</ele>
        <time>2011-05-15T07:50:15Z</time>
      </trkpt>
      <trkpt lat="43.47076" lon="-0.638">
        <ele>224.124512</ele>
        <time>2011-05-15T07:50:25Z</time>
      </trkpt>
      <trkpt lat="43.47121" lon="-0.63957">
        <ele>223.163208</ele>
        <time>2011-05-15T07:50:42Z</time>
      </trkpt>
      <trkpt lat="43.47139" lon="-0.63985">
        <ele>224.124512</ele>
        <time>2011-05-15T07:50:46Z</time>
      </trkpt>
      <trkpt lat="43.47194" lon="-0.64076">
        <ele>222.201782</ele>
        <time>2011-05-15T07:50:59Z</time>
      </trkpt>
      <trkpt lat="43.47248" lon="-0.64204">
        <ele>219.798584</ele>
        <time>2011-05-15T07:51:14Z</time>
      </trkpt>
      <trkpt lat="43.47252" lon="-0.64271">
        <ele>219.798584</ele>
        <time>2011-05-15T07:51:21Z</time>
      </trkpt>
      <trkpt lat="43.47228" lon="-0.64405">
        <ele>220.279175</ele>
        <time>2011-05-15T07:51:36Z</time>
      </trkpt>
      <trkpt lat="43.47222" lon="-0.64483">
        <ele>220.279175</ele>
        <time>2011-05-15T07:51:45Z</time>
      </trkpt>
      <trkpt lat="43.47236" lon="-0.64553">
        <ele>220.759888</ele>
        <time>2011-05-15T07:51:54Z</time>
      </trkpt>
      <trkpt lat="43.47282" lon="-0.64619">
        <ele>217.875977</ele>
        <time>2011-05-15T07:52:04Z</time>
      </trkpt>
      <trkpt lat="43.47292" lon="-0.64634">
        <ele>216.914673</ele>
        <time>2011-05-15T07:52:06Z</time>
      </trkpt>
      <trkpt lat="43.47318" lon="-0.64702">
        <ele>214.51123</ele>
        <time>2011-05-15T07:52:13Z</time>
      </trkpt>
      <trkpt lat="43.47327" lon="-0.64722">
        <ele>211.146729</ele>
        <time>2011-05-15T07:52:15Z</time>
      </trkpt>
      <trkpt lat="43.47331" lon="-0.64733">
        <ele>210.666016</ele>
        <time>2011-05-15T07:52:16Z</time>
      </trkpt>
      <trkpt lat="43.47355" lon="-0.6478">
        <ele>208.262817</ele>
        <time>2011-05-15T07:52:21Z</time>
      </trkpt>
      <trkpt lat="43.474" lon="-0.64872">
        <ele>206.820679</ele>
        <time>2011-05-15T07:52:32Z</time>
      </trkpt>
      <trkpt lat="43.47423" lon="-0.64986">
        <ele>207.301392</ele>
        <time>2011-05-15T07:52:45Z</time>
      </trkpt>
      <trkpt lat="43.47445" lon="-0.65107">
        <ele>207.301392</ele>
        <time>2011-05-15T07:53:01Z</time>
      </trkpt>
      <trkpt lat="43.47448" lon="-0.65115">
        <ele>206.340088</ele>
        <time>2011-05-15T07:53:02Z</time>
      </trkpt>
      <trkpt lat="43.47472" lon="-0.65149">
        <ele>204.41748</ele>
        <time>2011-05-15T07:53:07Z</time>
      </trkpt>
      <trkpt lat="43.47493" lon="-0.65165">
        <ele>203.456177</ele>
        <time>2011-05-15T07:53:12Z</time>
      </trkpt>
      <trkpt lat="43.47497" lon="-0.65171">
        <ele>202.494873</ele>
        <time>2011-05-15T07:53:20Z</time>
      </trkpt>
      <trkpt lat="43.47497" lon="-0.6517">
        <ele>202.975464</ele>
        <time>2011-05-15T07:53:21Z</time>
      </trkpt>
      <trkpt lat="43.47501" lon="-0.65168">
        <ele>202.975464</ele>
        <time>2011-05-15T07:53:25Z</time>
      </trkpt>
      <trkpt lat="43.47516" lon="-0.65177">
        <ele>202.014282</ele>
        <time>2011-05-15T07:53:42Z</time>
      </trkpt>
      <trkpt lat="43.4752" lon="-0.65174">
        <ele>201.533569</ele>
        <time>2011-05-15T07:53:55Z</time>
      </trkpt>
      <trkpt lat="43.47519" lon="-0.65173">
        <ele>201.052856</ele>
        <time>2011-05-15T07:54:12Z</time>
      </trkpt>
      <trkpt lat="43.47521" lon="-0.65172">
        <ele>201.533569</ele>
        <time>2011-05-15T07:54:34Z</time>
      </trkpt>
      <trkpt lat="43.47521" lon="-0.65173">
        <ele>202.014282</ele>
        <time>2011-05-15T07:54:48Z</time>
      </trkpt>
      <trkpt lat="43.47521" lon="-0.65173">
        <ele>202.014282</ele>
        <time>2011-05-15T07:55:04Z</time>
      </trkpt>
      <trkpt lat="43.47521" lon="-0.65172">
        <ele>201.052856</ele>
        <time>2011-05-15T07:55:31Z</time>
      </trkpt>
      <trkpt lat="43.47521" lon="-0.65173">
        <ele>201.533569</ele>
        <time>2011-05-15T07:55:53Z</time>
      </trkpt>
      <trkpt lat="43.4752" lon="-0.65173">
        <ele>201.533569</ele>
        <time>2011-05-15T07:56:23Z</time>
      </trkpt>
      <trkpt lat="43.47518" lon="-0.65172">
        <ele>201.052856</ele>
        <time>2011-05-15T07:56:37Z</time>
      </trkpt>
      <trkpt lat="43.47519" lon="-0.65172">
        <ele>201.533569</ele>
        <time>2011-05-15T07:56:55Z</time>
      </trkpt>
      <trkpt lat="43.47521" lon="-0.65172">
        <ele>201.533569</ele>
        <time>2011-05-15T07:57:11Z</time>
      </trkpt>
      <trkpt lat="43.47521" lon="-0.65173">
        <ele>202.014282</ele>
        <time>2011-05-15T07:57:15Z</time>
      </trkpt>
      <trkpt lat="43.47516" lon="-0.65175">
        <ele>202.494873</ele>
        <time>2011-05-15T07:57:22Z</time>
      </trkpt>
      <trkpt lat="43.47503" lon="-0.65168">
        <ele>202.014282</ele>
        <time>2011-05-15T07:57:36Z</time>
      </trkpt>
      <trkpt lat="43.475" lon="-0.65165">
        <ele>202.494873</ele>
        <time>2011-05-15T07:57:40Z</time>
      </trkpt>
      <trkpt lat="43.47497" lon="-0.65165">
        <ele>202.494873</ele>
        <time>2011-05-15T07:57:53Z</time>
      </trkpt>
      <trkpt lat="43.47496" lon="-0.65165">
        <ele>203.456177</ele>
        <time>2011-05-15T07:58:13Z</time>
      </trkpt>
      <trkpt lat="43.47496" lon="-0.65166">
        <ele>203.456177</ele>
        <time>2011-05-15T07:58:36Z</time>
      </trkpt>
      <trkpt lat="43.47499" lon="-0.65164">
        <ele>203.93689</ele>
        <time>2011-05-15T07:58:45Z</time>
      </trkpt>
      <trkpt lat="43.47503" lon="-0.65166">
        <ele>203.93689</ele>
        <time>2011-05-15T07:58:49Z</time>
      </trkpt>
      <trkpt lat="43.47502" lon="-0.65177">
        <ele>203.456177</ele>
        <time>2011-05-15T07:58:54Z</time>
      </trkpt>
      <trkpt lat="43.47476" lon="-0.65208">
        <ele>205.378784</ele>
        <time>2011-05-15T07:59:08Z</time>
      </trkpt>
      <trkpt lat="43.47415" lon="-0.65239">
        <ele>205.378784</ele>
        <time>2011-05-15T07:59:27Z</time>
      </trkpt>
      <trkpt lat="43.47388" lon="-0.65249">
        <ele>204.898071</ele>
        <time>2011-05-15T07:59:34Z</time>
      </trkpt>
      <trkpt lat="43.47351" lon="-0.65261">
        <ele>202.014282</ele>
        <time>2011-05-15T07:59:41Z</time>
      </trkpt>
      <trkpt lat="43.47331" lon="-0.65266">
        <ele>198.168945</ele>
        <time>2011-05-15T07:59:44Z</time>
      </trkpt>
      <trkpt lat="43.47317" lon="-0.65269">
        <ele>197.688232</ele>
        <time>2011-05-15T07:59:46Z</time>
      </trkpt>
      <trkpt lat="43.47283" lon="-0.65302">
        <ele>196.726929</ele>
        <time>2011-05-15T07:59:54Z</time>
      </trkpt>
      <trkpt lat="43.4726" lon="-0.65313">
        <ele>195.284912</ele>
        <time>2011-05-15T08:00:02Z</time>
      </trkpt>
      <trkpt lat="43.47251" lon="-0.6533">
        <ele>193.362305</ele>
        <time>2011-05-15T08:00:07Z</time>
      </trkpt>
      <trkpt lat="43.47246" lon="-0.65349">
        <ele>192.881714</ele>
        <time>2011-05-15T08:00:10Z</time>
      </trkpt>
      <trkpt lat="43.47242" lon="-0.65362">
        <ele>191.920288</ele>
        <time>2011-05-15T08:00:12Z</time>
      </trkpt>
      <trkpt lat="43.4723" lon="-0.65395">
        <ele>189.036377</ele>
        <time>2011-05-15T08:00:18Z</time>
      </trkpt>
      <trkpt lat="43.4723" lon="-0.654">
        <ele>188.555786</ele>
        <time>2011-05-15T08:00:19Z</time>
      </trkpt>
      <trkpt lat="43.4724" lon="-0.65431">
        <ele>190.478394</ele>
        <time>2011-05-15T08:00:28Z</time>
      </trkpt>
      <trkpt lat="43.47231" lon="-0.65433">
        <ele>187.11377</ele>
        <time>2011-05-15T08:00:32Z</time>
      </trkpt>
      <trkpt lat="43.47229" lon="-0.65428">
        <ele>187.11377</ele>
        <time>2011-05-15T08:00:33Z</time>
      </trkpt>
      <trkpt lat="43.47215" lon="-0.6539">
        <ele>186.152466</ele>
        <time>2011-05-15T08:00:40Z</time>
      </trkpt>
      <trkpt lat="43.47196" lon="-0.65371">
        <ele>183.749023</ele>
        <time>2011-05-15T08:00:45Z</time>
      </trkpt>
      <trkpt lat="43.47181" lon="-0.65374">
        <ele>179.903809</ele>
        <time>2011-05-15T08:00:50Z</time>
      </trkpt>
      <trkpt lat="43.47156" lon="-0.65378">
        <ele>175.09729</ele>
        <time>2011-05-15T08:00:55Z</time>
      </trkpt>
      <trkpt lat="43.47151" lon="-0.65378">
        <ele>175.577881</ele>
        <time>2011-05-15T08:00:56Z</time>
      </trkpt>
      <trkpt lat="43.4714" lon="-0.6538">
        <ele>172.213257</ele>
        <time>2011-05-15T08:00:59Z</time>
      </trkpt>
      <trkpt lat="43.47132" lon="-0.65386">
        <ele>170.771362</ele>
        <time>2011-05-15T08:01:02Z</time>
      </trkpt>
      <trkpt lat="43.47121" lon="-0.65388">
        <ele>170.290649</ele>
        <time>2011-05-15T08:01:05Z</time>
      </trkpt>
      <trkpt lat="43.47104" lon="-0.65395">
        <ele>167.406738</ele>
        <time>2011-05-15T08:01:09Z</time>
      </trkpt>
      <trkpt lat="43.47086" lon="-0.65402">
        <ele>162.600098</ele>
        <time>2011-05-15T08:01:13Z</time>
      </trkpt>
      <trkpt lat="43.47079" lon="-0.65407">
        <ele>161.158203</ele>
        <time>2011-05-15T08:01:15Z</time>
      </trkpt>
      <trkpt lat="43.47064" lon="-0.65416">
        <ele>157.793579</ele>
        <time>2011-05-15T08:01:20Z</time>
      </trkpt>
      <trkpt lat="43.4706" lon="-0.65414">
        <ele>157.793579</ele>
        <time>2011-05-15T08:01:21Z</time>
      </trkpt>
      <trkpt lat="43.47047" lon="-0.65401">
        <ele>153.467651</ele>
        <time>2011-05-15T08:01:25Z</time>
      </trkpt>
      <trkpt lat="43.47041" lon="-0.6539">
        <ele>151.544922</ele>
        <time>2011-05-15T08:01:28Z</time>
      </trkpt>
      <trkpt lat="43.47035" lon="-0.65387">
        <ele>148.18042</ele>
        <time>2011-05-15T08:01:31Z</time>
      </trkpt>
      <trkpt lat="43.47034" lon="-0.6539">
        <ele>148.18042</ele>
        <time>2011-05-15T08:01:33Z</time>
      </trkpt>
      <trkpt lat="43.4702" lon="-0.65414">
        <ele>144.815796</ele>
        <time>2011-05-15T08:01:42Z</time>
      </trkpt>
      <trkpt lat="43.47011" lon="-0.65432">
        <ele>141.45105</ele>
        <time>2011-05-15T08:01:48Z</time>
      </trkpt>
      <trkpt lat="43.47011" lon="-0.65434">
        <ele>140.970459</ele>
        <time>2011-05-15T08:01:49Z</time>
      </trkpt>
      <trkpt lat="43.47027" lon="-0.65459">
        <ele>141.931763</ele>
        <time>2011-05-15T08:01:59Z</time>
      </trkpt>
      <trkpt lat="43.4704" lon="-0.65472">
        <ele>138.086548</ele>
        <time>2011-05-15T08:02:04Z</time>
      </trkpt>
      <trkpt lat="43.47042" lon="-0.65475">
        <ele>136.16394</ele>
        <time>2011-05-15T08:02:05Z</time>
      </trkpt>
      <trkpt lat="43.47037" lon="-0.65491">
        <ele>131.3573</ele>
        <time>2011-05-15T08:02:10Z</time>
      </trkpt>
      <trkpt lat="43.47028" lon="-0.65496">
        <ele>131.3573</ele>
        <time>2011-05-15T08:02:12Z</time>
      </trkpt>
      <trkpt lat="43.47013" lon="-0.65503">
        <ele>128.954102</ele>
        <time>2011-05-15T08:02:16Z</time>
      </trkpt>
      <trkpt lat="43.47001" lon="-0.65491">
        <ele>129.915283</ele>
        <time>2011-05-15T08:02:21Z</time>
      </trkpt>
      <trkpt lat="43.46998" lon="-0.65487">
        <ele>131.3573</ele>
        <time>2011-05-15T08:02:23Z</time>
      </trkpt>
      <trkpt lat="43.46982" lon="-0.65485">
        <ele>128.473389</ele>
        <time>2011-05-15T08:02:30Z</time>
      </trkpt>
      <trkpt lat="43.46969" lon="-0.65481">
        <ele>124.147339</ele>
        <time>2011-05-15T08:02:34Z</time>
      </trkpt>
      <trkpt lat="43.46955" lon="-0.65469">
        <ele>123.186157</ele>
        <time>2011-05-15T08:02:38Z</time>
      </trkpt>
      <trkpt lat="43.46941" lon="-0.65455">
        <ele>122.705444</ele>
        <time>2011-05-15T08:02:43Z</time>
      </trkpt>
      <trkpt lat="43.46933" lon="-0.65465">
        <ele>121.744141</ele>
        <time>2011-05-15T08:02:53Z</time>
      </trkpt>
      <trkpt lat="43.46932" lon="-0.6547">
        <ele>122.705444</ele>
        <time>2011-05-15T08:02:57Z</time>
      </trkpt>
      <trkpt lat="43.46936" lon="-0.65478">
        <ele>122.705444</ele>
        <time>2011-05-15T08:03:01Z</time>
      </trkpt>
      <trkpt lat="43.46921" lon="-0.65499">
        <ele>123.666748</ele>
        <time>2011-05-15T08:03:11Z</time>
      </trkpt>
      <trkpt lat="43.46912" lon="-0.65507">
        <ele>125.108765</ele>
        <time>2011-05-15T08:03:15Z</time>
      </trkpt>
      <trkpt lat="43.46893" lon="-0.65514">
        <ele>126.550659</ele>
        <time>2011-05-15T08:03:21Z</time>
      </trkpt>
      <trkpt lat="43.4689" lon="-0.65559">
        <ele>126.550659</ele>
        <time>2011-05-15T08:03:31Z</time>
      </trkpt>
      <trkpt lat="43.46887" lon="-0.6564">
        <ele>125.589355</ele>
        <time>2011-05-15T08:03:44Z</time>
      </trkpt>
      <trkpt lat="43.46887" lon="-0.65667">
        <ele>125.108765</ele>
        <time>2011-05-15T08:03:48Z</time>
      </trkpt>
      <trkpt lat="43.46891" lon="-0.65726">
        <ele>124.628052</ele>
        <time>2011-05-15T08:03:58Z</time>
      </trkpt>
      <trkpt lat="43.46894" lon="-0.65744">
        <ele>122.224731</ele>
        <time>2011-05-15T08:04:04Z</time>
      </trkpt>
      <trkpt lat="43.46894" lon="-0.65745">
        <ele>122.224731</ele>
        <time>2011-05-15T08:04:08Z</time>
      </trkpt>
      <trkpt lat="43.46892" lon="-0.65748">
        <ele>123.666748</ele>
        <time>2011-05-15T08:04:11Z</time>
      </trkpt>
      <trkpt lat="43.46891" lon="-0.65754">
        <ele>123.666748</ele>
        <time>2011-05-15T08:04:16Z</time>
      </trkpt>
      <trkpt lat="43.46893" lon="-0.65776">
        <ele>123.186157</ele>
        <time>2011-05-15T08:04:22Z</time>
      </trkpt>
      <trkpt lat="43.46893" lon="-0.65788">
        <ele>123.186157</ele>
        <time>2011-05-15T08:04:25Z</time>
      </trkpt>
      <trkpt lat="43.46899" lon="-0.65804">
        <ele>122.224731</ele>
        <time>2011-05-15T08:04:30Z</time>
      </trkpt>
      <trkpt lat="43.46899" lon="-0.65826">
        <ele>119.34082</ele>
        <time>2011-05-15T08:04:35Z</time>
      </trkpt>
      <trkpt lat="43.46901" lon="-0.65839">
        <ele>118.379395</ele>
        <time>2011-05-15T08:04:44Z</time>
      </trkpt>
      <trkpt lat="43.46899" lon="-0.65843">
        <ele>118.860107</ele>
        <time>2011-05-15T08:04:47Z</time>
      </trkpt>
      <trkpt lat="43.46894" lon="-0.65869">
        <ele>119.34082</ele>
        <time>2011-05-15T08:04:56Z</time>
      </trkpt>
      <trkpt lat="43.46899" lon="-0.65884">
        <ele>118.860107</ele>
        <time>2011-05-15T08:04:59Z</time>
      </trkpt>
      <trkpt lat="43.46902" lon="-0.6594">
        <ele>119.34082</ele>
        <time>2011-05-15T08:05:10Z</time>
      </trkpt>
      <trkpt lat="43.46899" lon="-0.6596">
        <ele>118.379395</ele>
        <time>2011-05-15T08:05:14Z</time>
      </trkpt>
      <trkpt lat="43.46908" lon="-0.65971">
        <ele>116.456787</ele>
        <time>2011-05-15T08:05:20Z</time>
      </trkpt>
      <trkpt lat="43.46917" lon="-0.65972">
        <ele>114.53418</ele>
        <time>2011-05-15T08:05:24Z</time>
      </trkpt>
      <trkpt lat="43.46935" lon="-0.65971">
        <ele>113.572998</ele>
        <time>2011-05-15T08:05:35Z</time>
      </trkpt>
      <trkpt lat="43.46939" lon="-0.65974">
        <ele>114.53418</ele>
        <time>2011-05-15T08:05:38Z</time>
      </trkpt>
      <trkpt lat="43.4696" lon="-0.65975">
        <ele>115.976196</ele>
        <time>2011-05-15T08:05:47Z</time>
      </trkpt>
      <trkpt lat="43.46965" lon="-0.65978">
        <ele>116.9375</ele>
        <time>2011-05-15T08:05:49Z</time>
      </trkpt>
      <trkpt lat="43.46967" lon="-0.66009">
        <ele>119.34082</ele>
        <time>2011-05-15T08:05:58Z</time>
      </trkpt>
      <trkpt lat="43.46968" lon="-0.66025">
        <ele>119.821411</ele>
        <time>2011-05-15T08:06:02Z</time>
      </trkpt>
      <trkpt lat="43.46971" lon="-0.66092">
        <ele>119.821411</ele>
        <time>2011-05-15T08:06:16Z</time>
      </trkpt>
      <trkpt lat="43.46975" lon="-0.6615">
        <ele>119.821411</ele>
        <time>2011-05-15T08:06:28Z</time>
      </trkpt>
      <trkpt lat="43.46981" lon="-0.66204">
        <ele>118.379395</ele>
        <time>2011-05-15T08:06:38Z</time>
      </trkpt>
      <trkpt lat="43.46985" lon="-0.66283">
        <ele>117.898804</ele>
        <time>2011-05-15T08:06:50Z</time>
      </trkpt>
      <trkpt lat="43.46991" lon="-0.66307">
        <ele>115.495605</ele>
        <time>2011-05-15T08:06:54Z</time>
      </trkpt>
      <trkpt lat="43.46997" lon="-0.66318">
        <ele>114.53418</ele>
        <time>2011-05-15T08:06:56Z</time>
      </trkpt>
      <trkpt lat="43.47013" lon="-0.66352">
        <ele>113.092285</ele>
        <time>2011-05-15T08:07:07Z</time>
      </trkpt>
      <trkpt lat="43.47028" lon="-0.66394">
        <ele>114.053589</ele>
        <time>2011-05-15T08:07:17Z</time>
      </trkpt>
      <trkpt lat="43.47066" lon="-0.66437">
        <ele>114.53418</ele>
        <time>2011-05-15T08:07:30Z</time>
      </trkpt>
      <trkpt lat="43.47096" lon="-0.66457">
        <ele>115.976196</ele>
        <time>2011-05-15T08:07:42Z</time>
      </trkpt>
      <trkpt lat="43.47127" lon="-0.66434">
        <ele>119.34082</ele>
        <time>2011-05-15T08:07:55Z</time>
      </trkpt>
      <trkpt lat="43.47141" lon="-0.66426">
        <ele>121.744141</ele>
        <time>2011-05-15T08:08:02Z</time>
      </trkpt>
      <trkpt lat="43.4717" lon="-0.66442">
        <ele>124.628052</ele>
        <time>2011-05-15T08:08:17Z</time>
      </trkpt>
      <trkpt lat="43.4719" lon="-0.66458">
        <ele>127.992554</ele>
        <time>2011-05-15T08:08:28Z</time>
      </trkpt>
      <trkpt lat="43.47228" lon="-0.66486">
        <ele>130.876709</ele>
        <time>2011-05-15T08:08:48Z</time>
      </trkpt>
      <trkpt lat="43.47257" lon="-0.66498">
        <ele>132.799316</ele>
        <time>2011-05-15T08:09:01Z</time>
      </trkpt>
      <trkpt lat="43.47274" lon="-0.66502">
        <ele>133.760498</ele>
        <time>2011-05-15T08:09:10Z</time>
      </trkpt>
      <trkpt lat="43.47279" lon="-0.66489">
        <ele>134.721924</ele>
        <time>2011-05-15T08:09:15Z</time>
      </trkpt>
      <trkpt lat="43.47284" lon="-0.66438">
        <ele>133.760498</ele>
        <time>2011-05-15T08:09:27Z</time>
      </trkpt>
      <trkpt lat="43.47312" lon="-0.66439">
        <ele>136.644653</ele>
        <time>2011-05-15T08:09:39Z</time>
      </trkpt>
      <trkpt lat="43.47338" lon="-0.66443">
        <ele>138.086548</ele>
        <time>2011-05-15T08:09:54Z</time>
      </trkpt>
      <trkpt lat="43.4735" lon="-0.66445">
        <ele>141.931763</ele>
        <time>2011-05-15T08:10:01Z</time>
      </trkpt>
      <trkpt lat="43.47375" lon="-0.6645">
        <ele>144.815796</ele>
        <time>2011-05-15T08:10:17Z</time>
      </trkpt>
      <trkpt lat="43.47378" lon="-0.6645">
        <ele>146.257812</ele>
        <time>2011-05-15T08:10:19Z</time>
      </trkpt>
      <trkpt lat="43.47398" lon="-0.66454">
        <ele>149.141602</ele>
        <time>2011-05-15T08:10:32Z</time>
      </trkpt>
      <trkpt lat="43.474" lon="-0.66456">
        <ele>150.583618</ele>
        <time>2011-05-15T08:10:34Z</time>
      </trkpt>
      <trkpt lat="43.47407" lon="-0.66455">
        <ele>152.025757</ele>
        <time>2011-05-15T08:10:39Z</time>
      </trkpt>
      <trkpt lat="43.47408" lon="-0.66454">
        <ele>153.467651</ele>
        <time>2011-05-15T08:10:41Z</time>
      </trkpt>
      <trkpt lat="43.47409" lon="-0.66453">
        <ele>152.986938</ele>
        <time>2011-05-15T08:10:43Z</time>
      </trkpt>
      <trkpt lat="43.47423" lon="-0.66421">
        <ele>152.986938</ele>
        <time>2011-05-15T08:11:01Z</time>
      </trkpt>
      <trkpt lat="43.47441" lon="-0.66401">
        <ele>156.351562</ele>
        <time>2011-05-15T08:11:14Z</time>
      </trkpt>
      <trkpt lat="43.47458" lon="-0.6639">
        <ele>159.716187</ele>
        <time>2011-05-15T08:11:28Z</time>
      </trkpt>
      <trkpt lat="43.47459" lon="-0.66389">
        <ele>160.196899</ele>
        <time>2011-05-15T08:11:29Z</time>
      </trkpt>
      <trkpt lat="43.47483" lon="-0.66375">
        <ele>162.119507</ele>
        <time>2011-05-15T08:11:47Z</time>
      </trkpt>
      <trkpt lat="43.47496" lon="-0.66374">
        <ele>165.484131</ele>
        <time>2011-05-15T08:11:58Z</time>
      </trkpt>
      <trkpt lat="43.47512" lon="-0.66377">
        <ele>168.848755</ele>
        <time>2011-05-15T08:12:11Z</time>
      </trkpt>
      <trkpt lat="43.47513" lon="-0.66378">
        <ele>168.848755</ele>
        <time>2011-05-15T08:12:12Z</time>
      </trkpt>
      <trkpt lat="43.47514" lon="-0.66393">
        <ele>171.732666</ele>
        <time>2011-05-15T08:12:23Z</time>
      </trkpt>
      <trkpt lat="43.47513" lon="-0.66407">
        <ele>174.135864</ele>
        <time>2011-05-15T08:12:32Z</time>
      </trkpt>
      <trkpt lat="43.47521" lon="-0.66416">
        <ele>177.02002</ele>
        <time>2011-05-15T08:12:43Z</time>
      </trkpt>
      <trkpt lat="43.47528" lon="-0.66421">
        <ele>178.942627</ele>
        <time>2011-05-15T08:12:50Z</time>
      </trkpt>
      <trkpt lat="43.47529" lon="-0.66421">
        <ele>178.461914</ele>
        <time>2011-05-15T08:12:51Z</time>
      </trkpt>
      <trkpt lat="43.47552" lon="-0.66432">
        <ele>181.826416</ele>
        <time>2011-05-15T08:13:11Z</time>
      </trkpt>
      <trkpt lat="43.47567" lon="-0.66437">
        <ele>182.787842</ele>
        <time>2011-05-15T08:13:24Z</time>
      </trkpt>
      <trkpt lat="43.47582" lon="-0.66437">
        <ele>186.152466</ele>
        <time>2011-05-15T08:13:36Z</time>
      </trkpt>
      <trkpt lat="43.47606" lon="-0.66436">
        <ele>187.59436</ele>
        <time>2011-05-15T08:13:50Z</time>
      </trkpt>
      <trkpt lat="43.47615" lon="-0.66435">
        <ele>189.516968</ele>
        <time>2011-05-15T08:13:55Z</time>
      </trkpt>
      <trkpt lat="43.47634" lon="-0.66411">
        <ele>187.11377</ele>
        <time>2011-05-15T08:14:10Z</time>
      </trkpt>
      <trkpt lat="43.47636" lon="-0.66393">
        <ele>185.191162</ele>
        <time>2011-05-15T08:14:13Z</time>
      </trkpt>
      <trkpt lat="43.47655" lon="-0.66364">
        <ele>187.59436</ele>
        <time>2011-05-15T08:14:22Z</time>
      </trkpt>
      <trkpt lat="43.47657" lon="-0.66365">
        <ele>187.11377</ele>
        <time>2011-05-15T08:14:23Z</time>
      </trkpt>
      <trkpt lat="43.47661" lon="-0.6637">
        <ele>188.555786</ele>
        <time>2011-05-15T08:14:26Z</time>
      </trkpt>
      <trkpt lat="43.47658" lon="-0.66403">
        <ele>188.555786</ele>
        <time>2011-05-15T08:14:36Z</time>
      </trkpt>
      <trkpt lat="43.47657" lon="-0.66407">
        <ele>188.075073</ele>
        <time>2011-05-15T08:14:37Z</time>
      </trkpt>
      <trkpt lat="43.4765" lon="-0.66447">
        <ele>188.555786</ele>
        <time>2011-05-15T08:14:45Z</time>
      </trkpt>
      <trkpt lat="43.47641" lon="-0.66512">
        <ele>189.997681</ele>
        <time>2011-05-15T08:14:57Z</time>
      </trkpt>
      <trkpt lat="43.47638" lon="-0.66522">
        <ele>189.036377</ele>
        <time>2011-05-15T08:14:59Z</time>
      </trkpt>
      <trkpt lat="43.47633" lon="-0.66573">
        <ele>188.075073</ele>
        <time>2011-05-15T08:15:06Z</time>
      </trkpt>
      <trkpt lat="43.4763" lon="-0.66608">
        <ele>187.59436</ele>
        <time>2011-05-15T08:15:11Z</time>
      </trkpt>
      <trkpt lat="43.47628" lon="-0.66628">
        <ele>187.11377</ele>
        <time>2011-05-15T08:15:14Z</time>
      </trkpt>
      <trkpt lat="43.47619" lon="-0.66669">
        <ele>187.59436</ele>
        <time>2011-05-15T08:15:21Z</time>
      </trkpt>
      <trkpt lat="43.47597" lon="-0.66718">
        <ele>188.555786</ele>
        <time>2011-05-15T08:15:31Z</time>
      </trkpt>
      <trkpt lat="43.4759" lon="-0.66734">
        <ele>188.555786</ele>
        <time>2011-05-15T08:15:34Z</time>
      </trkpt>
      <trkpt lat="43.47582" lon="-0.66753">
        <ele>188.555786</ele>
        <time>2011-05-15T08:15:37Z</time>
      </trkpt>
      <trkpt lat="43.47558" lon="-0.66822">
        <ele>192.401123</ele>
        <time>2011-05-15T08:15:49Z</time>
      </trkpt>
      <trkpt lat="43.47542" lon="-0.66889">
        <ele>195.284912</ele>
        <time>2011-05-15T08:16:03Z</time>
      </trkpt>
      <trkpt lat="43.47535" lon="-0.66983">
        <ele>193.843018</ele>
        <time>2011-05-15T08:16:16Z</time>
      </trkpt>
      <trkpt lat="43.47531" lon="-0.67051">
        <ele>192.881714</ele>
        <time>2011-05-15T08:16:24Z</time>
      </trkpt>
      <trkpt lat="43.4752" lon="-0.67088">
        <ele>193.362305</ele>
        <time>2011-05-15T08:16:29Z</time>
      </trkpt>
      <trkpt lat="43.475" lon="-0.67131">
        <ele>194.32373</ele>
        <time>2011-05-15T08:16:36Z</time>
      </trkpt>
      <trkpt lat="43.47473" lon="-0.67235">
        <ele>195.284912</ele>
        <time>2011-05-15T08:16:52Z</time>
      </trkpt>
      <trkpt lat="43.47466" lon="-0.67286">
        <ele>192.881714</ele>
        <time>2011-05-15T08:16:57Z</time>
      </trkpt>
      <trkpt lat="43.47462" lon="-0.67335">
        <ele>189.516968</ele>
        <time>2011-05-15T08:17:01Z</time>
      </trkpt>
      <trkpt lat="43.47466" lon="-0.67424">
        <ele>185.191162</ele>
        <time>2011-05-15T08:17:08Z</time>
      </trkpt>
      <trkpt lat="43.4747" lon="-0.67473">
        <ele>183.749023</ele>
        <time>2011-05-15T08:17:12Z</time>
      </trkpt>
      <trkpt lat="43.47467" lon="-0.67522">
        <ele>180.384521</ele>
        <time>2011-05-15T08:17:16Z</time>
      </trkpt>
      <trkpt lat="43.47466" lon="-0.67561">
        <ele>177.02002</ele>
        <time>2011-05-15T08:17:19Z</time>
      </trkpt>
      <trkpt lat="43.47465" lon="-0.67594">
        <ele>172.69397</ele>
        <time>2011-05-15T08:17:22Z</time>
      </trkpt>
      <trkpt lat="43.47464" lon="-0.67603">
        <ele>171.732666</ele>
        <time>2011-05-15T08:17:23Z</time>
      </trkpt>
      <trkpt lat="43.47493" lon="-0.67602">
        <ele>168.368042</ele>
        <time>2011-05-15T08:17:30Z</time>
      </trkpt>
      <trkpt lat="43.47504" lon="-0.67588">
        <ele>167.887329</ele>
        <time>2011-05-15T08:17:32Z</time>
      </trkpt>
      <trkpt lat="43.47516" lon="-0.67559">
        <ele>166.445312</ele>
        <time>2011-05-15T08:17:35Z</time>
      </trkpt>
      <trkpt lat="43.47525" lon="-0.6753">
        <ele>164.522705</ele>
        <time>2011-05-15T08:17:38Z</time>
      </trkpt>
      <trkpt lat="43.47537" lon="-0.67478">
        <ele>161.158203</ele>
        <time>2011-05-15T08:17:43Z</time>
      </trkpt>
      <trkpt lat="43.4754" lon="-0.67466">
        <ele>161.158203</ele>
        <time>2011-05-15T08:17:44Z</time>
      </trkpt>
      <trkpt lat="43.47544" lon="-0.67454">
        <ele>160.196899</ele>
        <time>2011-05-15T08:17:45Z</time>
      </trkpt>
      <trkpt lat="43.4757" lon="-0.6741">
        <ele>156.351562</ele>
        <time>2011-05-15T08:17:49Z</time>
      </trkpt>
      <trkpt lat="43.47612" lon="-0.6735">
        <ele>152.506348</ele>
        <time>2011-05-15T08:17:56Z</time>
      </trkpt>
      <trkpt lat="43.47622" lon="-0.67316">
        <ele>151.544922</ele>
        <time>2011-05-15T08:18:00Z</time>
      </trkpt>
      <trkpt lat="43.47628" lon="-0.67289">
        <ele>152.986938</ele>
        <time>2011-05-15T08:18:05Z</time>
      </trkpt>
      <trkpt lat="43.47631" lon="-0.67275">
        <ele>153.467651</ele>
        <time>2011-05-15T08:18:07Z</time>
      </trkpt>
      <trkpt lat="43.47643" lon="-0.67239">
        <ele>150.583618</ele>
        <time>2011-05-15T08:18:12Z</time>
      </trkpt>
      <trkpt lat="43.47653" lon="-0.67217">
        <ele>150.103027</ele>
        <time>2011-05-15T08:18:15Z</time>
      </trkpt>
      <trkpt lat="43.47655" lon="-0.67203">
        <ele>149.622314</ele>
        <time>2011-05-15T08:18:17Z</time>
      </trkpt>
      <trkpt lat="43.47656" lon="-0.6718">
        <ele>150.103027</ele>
        <time>2011-05-15T08:18:20Z</time>
      </trkpt>
      <trkpt lat="43.47656" lon="-0.67156">
        <ele>151.544922</ele>
        <time>2011-05-15T08:18:23Z</time>
      </trkpt>
      <trkpt lat="43.47662" lon="-0.67126">
        <ele>151.064209</ele>
        <time>2011-05-15T08:18:28Z</time>
      </trkpt>
      <trkpt lat="43.47692" lon="-0.67093">
        <ele>146.738403</ele>
        <time>2011-05-15T08:18:34Z</time>
      </trkpt>
      <trkpt lat="43.47697" lon="-0.67087">
        <ele>146.738403</ele>
        <time>2011-05-15T08:18:35Z</time>
      </trkpt>
      <trkpt lat="43.47702" lon="-0.67081">
        <ele>146.257812</ele>
        <time>2011-05-15T08:18:36Z</time>
      </trkpt>
      <trkpt lat="43.47719" lon="-0.67057">
        <ele>141.931763</ele>
        <time>2011-05-15T08:18:41Z</time>
      </trkpt>
      <trkpt lat="43.47725" lon="-0.67049">
        <ele>140.489868</ele>
        <time>2011-05-15T08:18:43Z</time>
      </trkpt>
      <trkpt lat="43.47727" lon="-0.67035">
        <ele>140.489868</ele>
        <time>2011-05-15T08:18:45Z</time>
      </trkpt>
      <trkpt lat="43.47731" lon="-0.66942">
        <ele>139.047852</ele>
        <time>2011-05-15T08:18:58Z</time>
      </trkpt>
      <trkpt lat="43.47731" lon="-0.66934">
        <ele>138.086548</ele>
        <time>2011-05-15T08:18:59Z</time>
      </trkpt>
      <trkpt lat="43.47731" lon="-0.66921">
        <ele>136.644653</ele>
        <time>2011-05-15T08:19:01Z</time>
      </trkpt>
      <trkpt lat="43.47753" lon="-0.66886">
        <ele>132.318604</ele>
        <time>2011-05-15T08:19:08Z</time>
      </trkpt>
      <trkpt lat="43.47757" lon="-0.6688">
        <ele>132.318604</ele>
        <time>2011-05-15T08:19:09Z</time>
      </trkpt>
      <trkpt lat="43.47773" lon="-0.66889">
        <ele>129.915283</ele>
        <time>2011-05-15T08:19:14Z</time>
      </trkpt>
      <trkpt lat="43.47781" lon="-0.66946">
        <ele>127.031372</ele>
        <time>2011-05-15T08:19:21Z</time>
      </trkpt>
      <trkpt lat="43.47784" lon="-0.66972">
        <ele>125.108765</ele>
        <time>2011-05-15T08:19:24Z</time>
      </trkpt>
      <trkpt lat="43.47796" lon="-0.66999">
        <ele>122.224731</ele>
        <time>2011-05-15T08:19:28Z</time>
      </trkpt>
      <trkpt lat="43.47801" lon="-0.67007">
        <ele>120.782837</ele>
        <time>2011-05-15T08:19:30Z</time>
      </trkpt>
      <trkpt lat="43.47809" lon="-0.67014">
        <ele>119.34082</ele>
        <time>2011-05-15T08:19:33Z</time>
      </trkpt>
      <trkpt lat="43.47823" lon="-0.67034">
        <ele>119.34082</ele>
        <time>2011-05-15T08:19:42Z</time>
      </trkpt>
      <trkpt lat="43.47855" lon="-0.67065">
        <ele>120.302124</ele>
        <time>2011-05-15T08:19:56Z</time>
      </trkpt>
      <trkpt lat="43.47895" lon="-0.67074">
        <ele>123.666748</ele>
        <time>2011-05-15T08:20:09Z</time>
      </trkpt>
      <trkpt lat="43.47936" lon="-0.6708">
        <ele>126.550659</ele>
        <time>2011-05-15T08:20:24Z</time>
      </trkpt>
      <trkpt lat="43.4796" lon="-0.67072">
        <ele>129.915283</ele>
        <time>2011-05-15T08:20:36Z</time>
      </trkpt>
      <trkpt lat="43.4798" lon="-0.6707">
        <ele>132.799316</ele>
        <time>2011-05-15T08:20:46Z</time>
      </trkpt>
      <trkpt lat="43.47999" lon="-0.67067">
        <ele>135.683105</ele>
        <time>2011-05-15T08:20:56Z</time>
      </trkpt>
      <trkpt lat="43.48028" lon="-0.67068">
        <ele>139.047852</ele>
        <time>2011-05-15T08:21:11Z</time>
      </trkpt>
      <trkpt lat="43.48037" lon="-0.67067">
        <ele>140.009155</ele>
        <time>2011-05-15T08:21:16Z</time>
      </trkpt>
      <trkpt lat="43.48066" lon="-0.6704">
        <ele>142.893066</ele>
        <time>2011-05-15T08:21:32Z</time>
      </trkpt>
      <trkpt lat="43.48114" lon="-0.66996">
        <ele>140.970459</ele>
        <time>2011-05-15T08:21:45Z</time>
      </trkpt>
      <trkpt lat="43.48125" lon="-0.66985">
        <ele>141.45105</ele>
        <time>2011-05-15T08:21:48Z</time>
      </trkpt>
      <trkpt lat="43.48135" lon="-0.66958">
        <ele>141.931763</ele>
        <time>2011-05-15T08:21:54Z</time>
      </trkpt>
      <trkpt lat="43.48134" lon="-0.66933">
        <ele>146.257812</ele>
        <time>2011-05-15T08:22:04Z</time>
      </trkpt>
      <trkpt lat="43.48131" lon="-0.66897">
        <ele>149.141602</ele>
        <time>2011-05-15T08:22:19Z</time>
      </trkpt>
      <trkpt lat="43.48132" lon="-0.66895">
        <ele>149.141602</ele>
        <time>2011-05-15T08:22:20Z</time>
      </trkpt>
      <trkpt lat="43.48144" lon="-0.66893">
        <ele>150.103027</ele>
        <time>2011-05-15T08:22:27Z</time>
      </trkpt>
      <trkpt lat="43.48169" lon="-0.66896">
        <ele>154.428955</ele>
        <time>2011-05-15T08:22:43Z</time>
      </trkpt>
      <trkpt lat="43.48183" lon="-0.66889">
        <ele>157.312866</ele>
        <time>2011-05-15T08:22:55Z</time>
      </trkpt>
      <trkpt lat="43.48203" lon="-0.66878">
        <ele>160.67749</ele>
        <time>2011-05-15T08:23:10Z</time>
      </trkpt>
      <trkpt lat="43.48219" lon="-0.6687">
        <ele>163.561523</ele>
        <time>2011-05-15T08:23:21Z</time>
      </trkpt>
      <trkpt lat="43.48238" lon="-0.66864">
        <ele>166.926025</ele>
        <time>2011-05-15T08:23:34Z</time>
      </trkpt>
      <trkpt lat="43.48262" lon="-0.66863">
        <ele>170.290649</ele>
        <time>2011-05-15T08:23:50Z</time>
      </trkpt>
      <trkpt lat="43.48285" lon="-0.66855">
        <ele>173.655273</ele>
        <time>2011-05-15T08:24:06Z</time>
      </trkpt>
      <trkpt lat="43.48301" lon="-0.66845">
        <ele>176.539307</ele>
        <time>2011-05-15T08:24:18Z</time>
      </trkpt>
      <trkpt lat="43.48319" lon="-0.66834">
        <ele>180.384521</ele>
        <time>2011-05-15T08:24:31Z</time>
      </trkpt>
      <trkpt lat="43.48341" lon="-0.66822">
        <ele>183.749023</ele>
        <time>2011-05-15T08:24:46Z</time>
      </trkpt>
      <trkpt lat="43.48347" lon="-0.6682">
        <ele>184.710571</ele>
        <time>2011-05-15T08:24:50Z</time>
      </trkpt>
      <trkpt lat="43.48375" lon="-0.66813">
        <ele>188.555786</ele>
        <time>2011-05-15T08:25:05Z</time>
      </trkpt>
      <trkpt lat="43.48387" lon="-0.6681">
        <ele>190.478394</ele>
        <time>2011-05-15T08:25:12Z</time>
      </trkpt>
      <trkpt lat="43.48415" lon="-0.66805">
        <ele>193.843018</ele>
        <time>2011-05-15T08:25:29Z</time>
      </trkpt>
      <trkpt lat="43.48417" lon="-0.66802">
        <ele>193.843018</ele>
        <time>2011-05-15T08:25:31Z</time>
      </trkpt>
      <trkpt lat="43.48426" lon="-0.66807">
        <ele>195.284912</ele>
        <time>2011-05-15T08:25:38Z</time>
      </trkpt>
      <trkpt lat="43.48444" lon="-0.66849">
        <ele>196.246338</ele>
        <time>2011-05-15T08:25:52Z</time>
      </trkpt>
      <trkpt lat="43.48443" lon="-0.66918">
        <ele>196.246338</ele>
        <time>2011-05-15T08:26:06Z</time>
      </trkpt>
      <trkpt lat="43.4843" lon="-0.67003">
        <ele>195.284912</ele>
        <time>2011-05-15T08:26:21Z</time>
      </trkpt>
      <trkpt lat="43.48413" lon="-0.67089">
        <ele>194.804321</ele>
        <time>2011-05-15T08:26:35Z</time>
      </trkpt>
      <trkpt lat="43.48399" lon="-0.67159">
        <ele>195.284912</ele>
        <time>2011-05-15T08:26:48Z</time>
      </trkpt>
      <trkpt lat="43.48396" lon="-0.672">
        <ele>194.804321</ele>
        <time>2011-05-15T08:26:56Z</time>
      </trkpt>
      <trkpt lat="43.4842" lon="-0.67234">
        <ele>193.362305</ele>
        <time>2011-05-15T08:27:05Z</time>
      </trkpt>
      <trkpt lat="43.48429" lon="-0.67261">
        <ele>191.439575</ele>
        <time>2011-05-15T08:27:09Z</time>
      </trkpt>
      <trkpt lat="43.48436" lon="-0.67279">
        <ele>188.555786</ele>
        <time>2011-05-15T08:27:12Z</time>
      </trkpt>
      <trkpt lat="43.48457" lon="-0.67276">
        <ele>185.191162</ele>
        <time>2011-05-15T08:27:17Z</time>
      </trkpt>
      <trkpt lat="43.48468" lon="-0.67263">
        <ele>181.345825</ele>
        <time>2011-05-15T08:27:20Z</time>
      </trkpt>
      <trkpt lat="43.48471" lon="-0.67259">
        <ele>181.345825</ele>
        <time>2011-05-15T08:27:21Z</time>
      </trkpt>
      <trkpt lat="43.48475" lon="-0.67254">
        <ele>180.384521</ele>
        <time>2011-05-15T08:27:22Z</time>
      </trkpt>
      <trkpt lat="43.48486" lon="-0.67233">
        <ele>177.50061</ele>
        <time>2011-05-15T08:27:25Z</time>
      </trkpt>
      <trkpt lat="43.48493" lon="-0.67224">
        <ele>176.058594</ele>
        <time>2011-05-15T08:27:27Z</time>
      </trkpt>
      <trkpt lat="43.48499" lon="-0.67221">
        <ele>172.69397</ele>
        <time>2011-05-15T08:27:29Z</time>
      </trkpt>
      <trkpt lat="43.48504" lon="-0.67217">
        <ele>171.732666</ele>
        <time>2011-05-15T08:27:31Z</time>
      </trkpt>
      <trkpt lat="43.48505" lon="-0.67196">
        <ele>170.771362</ele>
        <time>2011-05-15T08:27:36Z</time>
      </trkpt>
      <trkpt lat="43.48502" lon="-0.67183">
        <ele>169.329468</ele>
        <time>2011-05-15T08:27:38Z</time>
      </trkpt>
      <trkpt lat="43.48506" lon="-0.67152">
        <ele>164.522705</ele>
        <time>2011-05-15T08:27:44Z</time>
      </trkpt>
      <trkpt lat="43.48509" lon="-0.6715">
        <ele>163.080811</ele>
        <time>2011-05-15T08:27:46Z</time>
      </trkpt>
      <trkpt lat="43.48521" lon="-0.67165">
        <ele>161.638916</ele>
        <time>2011-05-15T08:27:50Z</time>
      </trkpt>
      <trkpt lat="43.48535" lon="-0.67185">
        <ele>159.716187</ele>
        <time>2011-05-15T08:27:54Z</time>
      </trkpt>
      <trkpt lat="43.48544" lon="-0.67199">
        <ele>156.351562</ele>
        <time>2011-05-15T08:27:58Z</time>
      </trkpt>
      <trkpt lat="43.48545" lon="-0.67213">
        <ele>153.948364</ele>
        <time>2011-05-15T08:28:00Z</time>
      </trkpt>
      <trkpt lat="43.48545" lon="-0.6723">
        <ele>151.544922</ele>
        <time>2011-05-15T08:28:03Z</time>
      </trkpt>
      <trkpt lat="43.48561" lon="-0.67232">
        <ele>148.18042</ele>
        <time>2011-05-15T08:28:07Z</time>
      </trkpt>
      <trkpt lat="43.48574" lon="-0.67219">
        <ele>143.85437</ele>
        <time>2011-05-15T08:28:11Z</time>
      </trkpt>
      <trkpt lat="43.48598" lon="-0.67197">
        <ele>141.45105</ele>
        <time>2011-05-15T08:28:20Z</time>
      </trkpt>
      <trkpt lat="43.48607" lon="-0.6718">
        <ele>142.893066</ele>
        <time>2011-05-15T08:28:30Z</time>
      </trkpt>
      <trkpt lat="43.48613" lon="-0.67194">
        <ele>144.335205</ele>
        <time>2011-05-15T08:28:36Z</time>
      </trkpt>
      <trkpt lat="43.48616" lon="-0.67198">
        <ele>145.296387</ele>
        <time>2011-05-15T08:28:38Z</time>
      </trkpt>
      <trkpt lat="43.48628" lon="-0.67209">
        <ele>147.699707</ele>
        <time>2011-05-15T08:28:45Z</time>
      </trkpt>
      <trkpt lat="43.48627" lon="-0.67229">
        <ele>144.815796</ele>
        <time>2011-05-15T08:28:52Z</time>
      </trkpt>
      <trkpt lat="43.48627" lon="-0.67233">
        <ele>144.815796</ele>
        <time>2011-05-15T08:28:53Z</time>
      </trkpt>
      <trkpt lat="43.48629" lon="-0.67244">
        <ele>146.257812</ele>
        <time>2011-05-15T08:28:57Z</time>
      </trkpt>
      <trkpt lat="43.48635" lon="-0.67259">
        <ele>149.141602</ele>
        <time>2011-05-15T08:29:09Z</time>
      </trkpt>
      <trkpt lat="43.48645" lon="-0.67274">
        <ele>153.467651</ele>
        <time>2011-05-15T08:29:23Z</time>
      </trkpt>
      <trkpt lat="43.48651" lon="-0.6728">
        <ele>156.351562</ele>
        <time>2011-05-15T08:29:34Z</time>
      </trkpt>
      <trkpt lat="43.48666" lon="-0.67286">
        <ele>160.67749</ele>
        <time>2011-05-15T08:29:52Z</time>
      </trkpt>
      <trkpt lat="43.48679" lon="-0.67287">
        <ele>163.080811</ele>
        <time>2011-05-15T08:30:09Z</time>
      </trkpt>
      <trkpt lat="43.48686" lon="-0.67289">
        <ele>165.964722</ele>
        <time>2011-05-15T08:30:18Z</time>
      </trkpt>
      <trkpt lat="43.48696" lon="-0.67295">
        <ele>169.329468</ele>
        <time>2011-05-15T08:30:29Z</time>
      </trkpt>
      <trkpt lat="43.48702" lon="-0.67297">
        <ele>171.252075</ele>
        <time>2011-05-15T08:30:35Z</time>
      </trkpt>
      <trkpt lat="43.48714" lon="-0.67308">
        <ele>172.213257</ele>
        <time>2011-05-15T08:30:51Z</time>
      </trkpt>
      <trkpt lat="43.48732" lon="-0.67322">
        <ele>174.616577</ele>
        <time>2011-05-15T08:31:06Z</time>
      </trkpt>
      <trkpt lat="43.48755" lon="-0.67324">
        <ele>177.50061</ele>
        <time>2011-05-15T08:31:23Z</time>
      </trkpt>
      <trkpt lat="43.48772" lon="-0.6732">
        <ele>180.865234</ele>
        <time>2011-05-15T08:31:35Z</time>
      </trkpt>
      <trkpt lat="43.4879" lon="-0.67313">
        <ele>182.307129</ele>
        <time>2011-05-15T08:31:49Z</time>
      </trkpt>
      <trkpt lat="43.48813" lon="-0.67309">
        <ele>184.229858</ele>
        <time>2011-05-15T08:32:04Z</time>
      </trkpt>
      <trkpt lat="43.48841" lon="-0.67312">
        <ele>184.710571</ele>
        <time>2011-05-15T08:32:16Z</time>
      </trkpt>
      <trkpt lat="43.48863" lon="-0.67314">
        <ele>188.075073</ele>
        <time>2011-05-15T08:32:27Z</time>
      </trkpt>
      <trkpt lat="43.4888" lon="-0.6731">
        <ele>191.439575</ele>
        <time>2011-05-15T08:32:39Z</time>
      </trkpt>
      <trkpt lat="43.48892" lon="-0.67313">
        <ele>193.362305</ele>
        <time>2011-05-15T08:32:46Z</time>
      </trkpt>
      <trkpt lat="43.48927" lon="-0.6731">
        <ele>195.284912</ele>
        <time>2011-05-15T08:33:05Z</time>
      </trkpt>
      <trkpt lat="43.48947" lon="-0.6731">
        <ele>195.284912</ele>
        <time>2011-05-15T08:33:14Z</time>
      </trkpt>
      <trkpt lat="43.48958" lon="-0.67264">
        <ele>195.765625</ele>
        <time>2011-05-15T08:33:27Z</time>
      </trkpt>
      <trkpt lat="43.48979" lon="-0.67164">
        <ele>196.726929</ele>
        <time>2011-05-15T08:33:48Z</time>
      </trkpt>
      <trkpt lat="43.48998" lon="-0.67065">
        <ele>199.130127</ele>
        <time>2011-05-15T08:34:08Z</time>
      </trkpt>
      <trkpt lat="43.49008" lon="-0.67013">
        <ele>202.494873</ele>
        <time>2011-05-15T08:34:19Z</time>
      </trkpt>
      <trkpt lat="43.49009" lon="-0.67008">
        <ele>202.014282</ele>
        <time>2011-05-15T08:34:20Z</time>
      </trkpt>
      <trkpt lat="43.49008" lon="-0.66937">
        <ele>205.378784</ele>
        <time>2011-05-15T08:34:35Z</time>
      </trkpt>
      <trkpt lat="43.49004" lon="-0.66903">
        <ele>206.820679</ele>
        <time>2011-05-15T08:34:43Z</time>
      </trkpt>
      <trkpt lat="43.49011" lon="-0.669">
        <ele>208.262817</ele>
        <time>2011-05-15T08:34:47Z</time>
      </trkpt>
      <trkpt lat="43.49017" lon="-0.6692">
        <ele>208.262817</ele>
        <time>2011-05-15T08:34:56Z</time>
      </trkpt>
      <trkpt lat="43.49019" lon="-0.66924">
        <ele>208.262817</ele>
        <time>2011-05-15T08:35:08Z</time>
      </trkpt>
      <trkpt lat="43.49019" lon="-0.66925">
        <ele>209.224121</ele>
        <time>2011-05-15T08:35:22Z</time>
      </trkpt>
      <trkpt lat="43.4902" lon="-0.66924">
        <ele>208.262817</ele>
        <time>2011-05-15T08:35:40Z</time>
      </trkpt>
      <trkpt lat="43.4902" lon="-0.66924">
        <ele>208.743408</ele>
        <time>2011-05-15T08:35:59Z</time>
      </trkpt>
      <trkpt lat="43.4902" lon="-0.66925">
        <ele>209.224121</ele>
        <time>2011-05-15T08:36:18Z</time>
      </trkpt>
      <trkpt lat="43.49016" lon="-0.66921">
        <ele>209.224121</ele>
        <time>2011-05-15T08:36:32Z</time>
      </trkpt>
      <trkpt lat="43.49015" lon="-0.66918">
        <ele>208.262817</ele>
        <time>2011-05-15T08:36:45Z</time>
      </trkpt>
      <trkpt lat="43.49015" lon="-0.66915">
        <ele>209.704834</ele>
        <time>2011-05-15T08:36:51Z</time>
      </trkpt>
      <trkpt lat="43.49012" lon="-0.66906">
        <ele>208.743408</ele>
        <time>2011-05-15T08:36:55Z</time>
      </trkpt>
      <trkpt lat="43.49" lon="-0.6689">
        <ele>207.782104</ele>
        <time>2011-05-15T08:37:01Z</time>
      </trkpt>
      <trkpt lat="43.48982" lon="-0.66819">
        <ele>209.704834</ele>
        <time>2011-05-15T08:37:16Z</time>
      </trkpt>
      <trkpt lat="43.48969" lon="-0.66768">
        <ele>210.666016</ele>
        <time>2011-05-15T08:37:26Z</time>
      </trkpt>
      <trkpt lat="43.48917" lon="-0.66676">
        <ele>210.666016</ele>
        <time>2011-05-15T08:37:44Z</time>
      </trkpt>
      <trkpt lat="43.48879" lon="-0.66563">
        <ele>211.146729</ele>
        <time>2011-05-15T08:38:01Z</time>
      </trkpt>
      <trkpt lat="43.48859" lon="-0.66426">
        <ele>210.666016</ele>
        <time>2011-05-15T08:38:19Z</time>
      </trkpt>
      <trkpt lat="43.48853" lon="-0.66405">
        <ele>210.185425</ele>
        <time>2011-05-15T08:38:22Z</time>
      </trkpt>
      <trkpt lat="43.48858" lon="-0.66387">
        <ele>209.704834</ele>
        <time>2011-05-15T08:38:26Z</time>
      </trkpt>
      <trkpt lat="43.48934" lon="-0.66357">
        <ele>207.782104</ele>
        <time>2011-05-15T08:38:39Z</time>
      </trkpt>
      <trkpt lat="43.4894" lon="-0.66355">
        <ele>207.782104</ele>
        <time>2011-05-15T08:38:40Z</time>
      </trkpt>
      <trkpt lat="43.48995" lon="-0.66345">
        <ele>205.859497</ele>
        <time>2011-05-15T08:38:48Z</time>
      </trkpt>
      <trkpt lat="43.4902" lon="-0.66311">
        <ele>203.456177</ele>
        <time>2011-05-15T08:38:53Z</time>
      </trkpt>
      <trkpt lat="43.49034" lon="-0.6627">
        <ele>202.494873</ele>
        <time>2011-05-15T08:38:57Z</time>
      </trkpt>
      <trkpt lat="43.49066" lon="-0.66238">
        <ele>200.091675</ele>
        <time>2011-05-15T08:39:02Z</time>
      </trkpt>
      <trkpt lat="43.49083" lon="-0.66236">
        <ele>199.61084</ele>
        <time>2011-05-15T08:39:04Z</time>
      </trkpt>
      <trkpt lat="43.49131" lon="-0.66235">
        <ele>194.804321</ele>
        <time>2011-05-15T08:39:09Z</time>
      </trkpt>
      <trkpt lat="43.49142" lon="-0.66234">
        <ele>194.804321</ele>
        <time>2011-05-15T08:39:10Z</time>
      </trkpt>
      <trkpt lat="43.49194" lon="-0.66223">
        <ele>192.401123</ele>
        <time>2011-05-15T08:39:15Z</time>
      </trkpt>
      <trkpt lat="43.49222" lon="-0.66209">
        <ele>190.958984</ele>
        <time>2011-05-15T08:39:18Z</time>
      </trkpt>
      <trkpt lat="43.49239" lon="-0.66198">
        <ele>189.516968</ele>
        <time>2011-05-15T08:39:20Z</time>
      </trkpt>
      <trkpt lat="43.49283" lon="-0.6615">
        <ele>186.152466</ele>
        <time>2011-05-15T08:39:26Z</time>
      </trkpt>
      <trkpt lat="43.49295" lon="-0.66133">
        <ele>185.671753</ele>
        <time>2011-05-15T08:39:28Z</time>
      </trkpt>
      <trkpt lat="43.49348" lon="-0.66026">
        <ele>184.229858</ele>
        <time>2011-05-15T08:39:40Z</time>
      </trkpt>
      <trkpt lat="43.49382" lon="-0.65971">
        <ele>184.710571</ele>
        <time>2011-05-15T08:39:48Z</time>
      </trkpt>
      <trkpt lat="43.49436" lon="-0.65887">
        <ele>184.229858</ele>
        <time>2011-05-15T08:40:02Z</time>
      </trkpt>
      <trkpt lat="43.4945" lon="-0.65855">
        <ele>182.307129</ele>
        <time>2011-05-15T08:40:07Z</time>
      </trkpt>
      <trkpt lat="43.49486" lon="-0.65744">
        <ele>180.865234</ele>
        <time>2011-05-15T08:40:21Z</time>
      </trkpt>
      <trkpt lat="43.49488" lon="-0.65735">
        <ele>181.345825</ele>
        <time>2011-05-15T08:40:22Z</time>
      </trkpt>
      <trkpt lat="43.49491" lon="-0.65705">
        <ele>179.903809</ele>
        <time>2011-05-15T08:40:25Z</time>
      </trkpt>
      <trkpt lat="43.49492" lon="-0.65655">
        <ele>176.539307</ele>
        <time>2011-05-15T08:40:29Z</time>
      </trkpt>
      <trkpt lat="43.49493" lon="-0.65641">
        <ele>176.539307</ele>
        <time>2011-05-15T08:40:30Z</time>
      </trkpt>
      <trkpt lat="43.49507" lon="-0.65584">
        <ele>172.213257</ele>
        <time>2011-05-15T08:40:34Z</time>
      </trkpt>
      <trkpt lat="43.49517" lon="-0.65531">
        <ele>168.368042</ele>
        <time>2011-05-15T08:40:37Z</time>
      </trkpt>
      <trkpt lat="43.49519" lon="-0.65512">
        <ele>164.522705</ele>
        <time>2011-05-15T08:40:38Z</time>
      </trkpt>
      <trkpt lat="43.4952" lon="-0.65493">
        <ele>163.561523</ele>
        <time>2011-05-15T08:40:39Z</time>
      </trkpt>
      <trkpt lat="43.49515" lon="-0.65429">
        <ele>156.832153</ele>
        <time>2011-05-15T08:40:43Z</time>
      </trkpt>
      <trkpt lat="43.49512" lon="-0.65406">
        <ele>156.351562</ele>
        <time>2011-05-15T08:40:45Z</time>
      </trkpt>
      <trkpt lat="43.49516" lon="-0.65296">
        <ele>152.986938</ele>
        <time>2011-05-15T08:40:55Z</time>
      </trkpt>
      <trkpt lat="43.49513" lon="-0.65262">
        <ele>148.661011</ele>
        <time>2011-05-15T08:40:58Z</time>
      </trkpt>
      <trkpt lat="43.49513" lon="-0.65238">
        <ele>146.257812</ele>
        <time>2011-05-15T08:41:01Z</time>
      </trkpt>
      <trkpt lat="43.4951" lon="-0.65206">
        <ele>143.85437</ele>
        <time>2011-05-15T08:41:05Z</time>
      </trkpt>
      <trkpt lat="43.49507" lon="-0.6519">
        <ele>142.412476</ele>
        <time>2011-05-15T08:41:07Z</time>
      </trkpt>
      <trkpt lat="43.49494" lon="-0.65143">
        <ele>137.605835</ele>
        <time>2011-05-15T08:41:12Z</time>
      </trkpt>
      <trkpt lat="43.49478" lon="-0.65097">
        <ele>134.241211</ele>
        <time>2011-05-15T08:41:16Z</time>
      </trkpt>
      <trkpt lat="43.49462" lon="-0.65034">
        <ele>131.3573</ele>
        <time>2011-05-15T08:41:21Z</time>
      </trkpt>
      <trkpt lat="43.49442" lon="-0.64926">
        <ele>129.434692</ele>
        <time>2011-05-15T08:41:32Z</time>
      </trkpt>
      <trkpt lat="43.49411" lon="-0.64813">
        <ele>127.031372</ele>
        <time>2011-05-15T08:41:45Z</time>
      </trkpt>
      <trkpt lat="43.49407" lon="-0.64805">
        <ele>126.550659</ele>
        <time>2011-05-15T08:41:46Z</time>
      </trkpt>
      <trkpt lat="43.49389" lon="-0.64777">
        <ele>125.589355</ele>
        <time>2011-05-15T08:41:50Z</time>
      </trkpt>
      <trkpt lat="43.49367" lon="-0.64706">
        <ele>123.186157</ele>
        <time>2011-05-15T08:41:59Z</time>
      </trkpt>
      <trkpt lat="43.49362" lon="-0.6469">
        <ele>123.666748</ele>
        <time>2011-05-15T08:42:02Z</time>
      </trkpt>
      <trkpt lat="43.49349" lon="-0.64681">
        <ele>123.186157</ele>
        <time>2011-05-15T08:42:06Z</time>
      </trkpt>
      <trkpt lat="43.49301" lon="-0.64633">
        <ele>123.666748</ele>
        <time>2011-05-15T08:42:21Z</time>
      </trkpt>
      <trkpt lat="43.49282" lon="-0.64597">
        <ele>124.147339</ele>
        <time>2011-05-15T08:42:34Z</time>
      </trkpt>
      <trkpt lat="43.49265" lon="-0.64564">
        <ele>125.589355</ele>
        <time>2011-05-15T08:42:53Z</time>
      </trkpt>
      <trkpt lat="43.49255" lon="-0.64545">
        <ele>128.473389</ele>
        <time>2011-05-15T08:43:07Z</time>
      </trkpt>
      <trkpt lat="43.49245" lon="-0.64521">
        <ele>130.876709</ele>
        <time>2011-05-15T08:43:21Z</time>
      </trkpt>
      <trkpt lat="43.49239" lon="-0.64511">
        <ele>132.318604</ele>
        <time>2011-05-15T08:43:28Z</time>
      </trkpt>
      <trkpt lat="43.49221" lon="-0.645">
        <ele>134.241211</ele>
        <time>2011-05-15T08:43:41Z</time>
      </trkpt>
      <trkpt lat="43.49193" lon="-0.64481">
        <ele>137.605835</ele>
        <time>2011-05-15T08:44:01Z</time>
      </trkpt>
      <trkpt lat="43.49173" lon="-0.64465">
        <ele>138.567261</ele>
        <time>2011-05-15T08:44:15Z</time>
      </trkpt>
      <trkpt lat="43.49146" lon="-0.64446">
        <ele>140.970459</ele>
        <time>2011-05-15T08:44:29Z</time>
      </trkpt>
      <trkpt lat="43.49113" lon="-0.64431">
        <ele>143.373657</ele>
        <time>2011-05-15T08:44:46Z</time>
      </trkpt>
      <trkpt lat="43.49084" lon="-0.64413">
        <ele>145.7771</ele>
        <time>2011-05-15T08:45:03Z</time>
      </trkpt>
      <trkpt lat="43.49065" lon="-0.64387">
        <ele>148.661011</ele>
        <time>2011-05-15T08:45:17Z</time>
      </trkpt>
      <trkpt lat="43.4904" lon="-0.64346">
        <ele>150.583618</ele>
        <time>2011-05-15T08:45:34Z</time>
      </trkpt>
      <trkpt lat="43.49021" lon="-0.64317">
        <ele>152.025757</ele>
        <time>2011-05-15T08:45:47Z</time>
      </trkpt>
      <trkpt lat="43.49003" lon="-0.6426">
        <ele>153.467651</ele>
        <time>2011-05-15T08:46:05Z</time>
      </trkpt>
      <trkpt lat="43.48996" lon="-0.64179">
        <ele>154.909546</ele>
        <time>2011-05-15T08:46:22Z</time>
      </trkpt>
      <trkpt lat="43.4899" lon="-0.64122">
        <ele>158.27417</ele>
        <time>2011-05-15T08:46:37Z</time>
      </trkpt>
      <trkpt lat="43.48988" lon="-0.6404">
        <ele>159.235474</ele>
        <time>2011-05-15T08:46:54Z</time>
      </trkpt>
      <trkpt lat="43.4899" lon="-0.63988">
        <ele>156.832153</ele>
        <time>2011-05-15T08:47:02Z</time>
      </trkpt>
      <trkpt lat="43.48979" lon="-0.63957">
        <ele>155.870972</ele>
        <time>2011-05-15T08:47:06Z</time>
      </trkpt>
      <trkpt lat="43.48961" lon="-0.63928">
        <ele>154.428955</ele>
        <time>2011-05-15T08:47:10Z</time>
      </trkpt>
      <trkpt lat="43.48938" lon="-0.63907">
        <ele>153.948364</ele>
        <time>2011-05-15T08:47:14Z</time>
      </trkpt>
      <trkpt lat="43.48898" lon="-0.63874">
        <ele>154.428955</ele>
        <time>2011-05-15T08:47:22Z</time>
      </trkpt>
      <trkpt lat="43.48873" lon="-0.63829">
        <ele>154.428955</ele>
        <time>2011-05-15T08:47:30Z</time>
      </trkpt>
      <trkpt lat="43.48856" lon="-0.63797">
        <ele>154.909546</ele>
        <time>2011-05-15T08:47:36Z</time>
      </trkpt>
      <trkpt lat="43.4885" lon="-0.63787">
        <ele>155.390259</ele>
        <time>2011-05-15T08:47:38Z</time>
      </trkpt>
      <trkpt lat="43.48843" lon="-0.63772">
        <ele>155.870972</ele>
        <time>2011-05-15T08:47:41Z</time>
      </trkpt>
      <trkpt lat="43.48798" lon="-0.63737">
        <ele>157.793579</ele>
        <time>2011-05-15T08:47:54Z</time>
      </trkpt>
      <trkpt lat="43.48743" lon="-0.63716">
        <ele>160.196899</ele>
        <time>2011-05-15T08:48:11Z</time>
      </trkpt>
      <trkpt lat="43.4874" lon="-0.63719">
        <ele>159.716187</ele>
        <time>2011-05-15T08:48:12Z</time>
      </trkpt>
      <trkpt lat="43.48718" lon="-0.63752">
        <ele>155.870972</ele>
        <time>2011-05-15T08:48:17Z</time>
      </trkpt>
      <trkpt lat="43.48709" lon="-0.63769">
        <ele>154.428955</ele>
        <time>2011-05-15T08:48:19Z</time>
      </trkpt>
      <trkpt lat="43.48698" lon="-0.63786">
        <ele>152.506348</ele>
        <time>2011-05-15T08:48:21Z</time>
      </trkpt>
      <trkpt lat="43.48677" lon="-0.63799">
        <ele>150.103027</ele>
        <time>2011-05-15T08:48:24Z</time>
      </trkpt>
      <trkpt lat="43.48667" lon="-0.6381">
        <ele>149.141602</ele>
        <time>2011-05-15T08:48:26Z</time>
      </trkpt>
      <trkpt lat="43.48663" lon="-0.63823">
        <ele>148.661011</ele>
        <time>2011-05-15T08:48:28Z</time>
      </trkpt>
      <trkpt lat="43.48659" lon="-0.63863">
        <ele>152.025757</ele>
        <time>2011-05-15T08:48:39Z</time>
      </trkpt>
      <trkpt lat="43.48677" lon="-0.63886">
        <ele>154.428955</ele>
        <time>2011-05-15T08:48:52Z</time>
      </trkpt>
      <trkpt lat="43.48695" lon="-0.63924">
        <ele>157.312866</ele>
        <time>2011-05-15T08:49:09Z</time>
      </trkpt>
      <trkpt lat="43.48702" lon="-0.63949">
        <ele>160.67749</ele>
        <time>2011-05-15T08:49:20Z</time>
      </trkpt>
      <trkpt lat="43.48702" lon="-0.63951">
        <ele>161.158203</ele>
        <time>2011-05-15T08:49:21Z</time>
      </trkpt>
      <trkpt lat="43.48699" lon="-0.6396">
        <ele>162.119507</ele>
        <time>2011-05-15T08:49:25Z</time>
      </trkpt>
      <trkpt lat="43.48688" lon="-0.63997">
        <ele>164.522705</ele>
        <time>2011-05-15T08:49:42Z</time>
      </trkpt>
      <trkpt lat="43.48677" lon="-0.64038">
        <ele>167.887329</ele>
        <time>2011-05-15T08:50:00Z</time>
      </trkpt>
      <trkpt lat="43.48646" lon="-0.64067">
        <ele>170.290649</ele>
        <time>2011-05-15T08:50:17Z</time>
      </trkpt>
      <trkpt lat="43.4861" lon="-0.64099">
        <ele>173.174683</ele>
        <time>2011-05-15T08:50:37Z</time>
      </trkpt>
      <trkpt lat="43.486" lon="-0.6409">
        <ele>174.616577</ele>
        <time>2011-05-15T08:50:44Z</time>
      </trkpt>
      <trkpt lat="43.48588" lon="-0.64069">
        <ele>177.981201</ele>
        <time>2011-05-15T08:50:55Z</time>
      </trkpt>
      <trkpt lat="43.48584" lon="-0.64066">
        <ele>178.942627</ele>
        <time>2011-05-15T08:50:57Z</time>
      </trkpt>
      <trkpt lat="43.48549" lon="-0.64052">
        <ele>182.307129</ele>
        <time>2011-05-15T08:51:15Z</time>
      </trkpt>
      <trkpt lat="43.48523" lon="-0.64023">
        <ele>186.152466</ele>
        <time>2011-05-15T08:51:30Z</time>
      </trkpt>
      <trkpt lat="43.48505" lon="-0.63989">
        <ele>189.516968</ele>
        <time>2011-05-15T08:51:43Z</time>
      </trkpt>
      <trkpt lat="43.48479" lon="-0.63936">
        <ele>191.920288</ele>
        <time>2011-05-15T08:52:02Z</time>
      </trkpt>
      <trkpt lat="43.48445" lon="-0.63883">
        <ele>193.362305</ele>
        <time>2011-05-15T08:52:19Z</time>
      </trkpt>
      <trkpt lat="43.48389" lon="-0.63841">
        <ele>194.804321</ele>
        <time>2011-05-15T08:52:36Z</time>
      </trkpt>
      <trkpt lat="43.48354" lon="-0.63818">
        <ele>192.881714</ele>
        <time>2011-05-15T08:52:43Z</time>
      </trkpt>
      <trkpt lat="43.48268" lon="-0.63811">
        <ele>193.362305</ele>
        <time>2011-05-15T08:53:00Z</time>
      </trkpt>
      <trkpt lat="43.48259" lon="-0.63813">
        <ele>193.843018</ele>
        <time>2011-05-15T08:53:02Z</time>
      </trkpt>
      <trkpt lat="43.4822" lon="-0.63817">
        <ele>197.20752</ele>
        <time>2011-05-15T08:53:11Z</time>
      </trkpt>
      <trkpt lat="43.48166" lon="-0.63787">
        <ele>198.168945</ele>
        <time>2011-05-15T08:53:28Z</time>
      </trkpt>
      <trkpt lat="43.48107" lon="-0.63724">
        <ele>198.649536</ele>
        <time>2011-05-15T08:53:46Z</time>
      </trkpt>
      <trkpt lat="43.48063" lon="-0.63671">
        <ele>201.052856</ele>
        <time>2011-05-15T08:54:00Z</time>
      </trkpt>
      <trkpt lat="43.48057" lon="-0.63664">
        <ele>202.014282</ele>
        <time>2011-05-15T08:54:03Z</time>
      </trkpt>
      <trkpt lat="43.48034" lon="-0.63646">
        <ele>204.898071</ele>
        <time>2011-05-15T08:54:16Z</time>
      </trkpt>
      <trkpt lat="43.48034" lon="-0.63645">
        <ele>204.898071</ele>
        <time>2011-05-15T08:54:28Z</time>
      </trkpt>
      <trkpt lat="43.48035" lon="-0.63642">
        <ele>204.898071</ele>
        <time>2011-05-15T08:54:43Z</time>
      </trkpt>
      <trkpt lat="43.48035" lon="-0.63645">
        <ele>204.898071</ele>
        <time>2011-05-15T08:54:58Z</time>
      </trkpt>
      <trkpt lat="43.48036" lon="-0.63639">
        <ele>204.898071</ele>
        <time>2011-05-15T08:55:17Z</time>
      </trkpt>
      <trkpt lat="43.48037" lon="-0.63641">
        <ele>204.41748</ele>
        <time>2011-05-15T08:55:31Z</time>
      </trkpt>
      <trkpt lat="43.48038" lon="-0.6364">
        <ele>205.378784</ele>
        <time>2011-05-15T08:55:41Z</time>
      </trkpt>
      <trkpt lat="43.48034" lon="-0.63647">
        <ele>204.898071</ele>
        <time>2011-05-15T08:55:55Z</time>
      </trkpt>
      <trkpt lat="43.48034" lon="-0.63648">
        <ele>205.859497</ele>
        <time>2011-05-15T08:55:59Z</time>
      </trkpt>
      <trkpt lat="43.48034" lon="-0.63648">
        <ele>204.898071</ele>
        <time>2011-05-15T08:56:01Z</time>
      </trkpt>
      <trkpt lat="43.48034" lon="-0.6365">
        <ele>205.378784</ele>
        <time>2011-05-15T08:56:20Z</time>
      </trkpt>
      <trkpt lat="43.4803" lon="-0.63699">
        <ele>204.41748</ele>
        <time>2011-05-15T08:56:34Z</time>
      </trkpt>
      <trkpt lat="43.48018" lon="-0.63806">
        <ele>202.014282</ele>
        <time>2011-05-15T08:56:50Z</time>
      </trkpt>
      <trkpt lat="43.48008" lon="-0.63915">
        <ele>200.572266</ele>
        <time>2011-05-15T08:57:07Z</time>
      </trkpt>
      <trkpt lat="43.47991" lon="-0.63933">
        <ele>200.091675</ele>
        <time>2011-05-15T08:57:15Z</time>
      </trkpt>
      <trkpt lat="43.47985" lon="-0.63919">
        <ele>200.572266</ele>
        <time>2011-05-15T08:57:19Z</time>
      </trkpt>
      <trkpt lat="43.4798" lon="-0.6388">
        <ele>200.091675</ele>
        <time>2011-05-15T08:57:25Z</time>
      </trkpt>
      <trkpt lat="43.47971" lon="-0.63781">
        <ele>201.533569</ele>
        <time>2011-05-15T08:57:39Z</time>
      </trkpt>
      <trkpt lat="43.47953" lon="-0.63662">
        <ele>202.494873</ele>
        <time>2011-05-15T08:57:55Z</time>
      </trkpt>
      <trkpt lat="43.47889" lon="-0.63528">
        <ele>203.456177</ele>
        <time>2011-05-15T08:58:16Z</time>
      </trkpt>
      <trkpt lat="43.47813" lon="-0.63371">
        <ele>203.93689</ele>
        <time>2011-05-15T08:58:39Z</time>
      </trkpt>
      <trkpt lat="43.47743" lon="-0.63205">
        <ele>204.41748</ele>
        <time>2011-05-15T08:59:02Z</time>
      </trkpt>
      <trkpt lat="43.47667" lon="-0.63069">
        <ele>206.340088</ele>
        <time>2011-05-15T08:59:23Z</time>
      </trkpt>
      <trkpt lat="43.4757" lon="-0.62938">
        <ele>206.820679</ele>
        <time>2011-05-15T08:59:47Z</time>
      </trkpt>
      <trkpt lat="43.47541" lon="-0.62897">
        <ele>205.859497</ele>
        <time>2011-05-15T08:59:54Z</time>
      </trkpt>
      <trkpt lat="43.47459" lon="-0.62812">
        <ele>206.340088</ele>
        <time>2011-05-15T09:00:12Z</time>
      </trkpt>
      <trkpt lat="43.47352" lon="-0.62715">
        <ele>208.743408</ele>
        <time>2011-05-15T09:00:37Z</time>
      </trkpt>
      <trkpt lat="43.47258" lon="-0.62679">
        <ele>209.704834</ele>
        <time>2011-05-15T09:00:56Z</time>
      </trkpt>
      <trkpt lat="43.47154" lon="-0.62672">
        <ele>210.185425</ele>
        <time>2011-05-15T09:01:17Z</time>
      </trkpt>
      <trkpt lat="43.47063" lon="-0.62636">
        <ele>212.108032</ele>
        <time>2011-05-15T09:01:36Z</time>
      </trkpt>
      <trkpt lat="43.46959" lon="-0.62549">
        <ele>214.03064</ele>
        <time>2011-05-15T09:01:59Z</time>
      </trkpt>
      <trkpt lat="43.4694" lon="-0.62535">
        <ele>214.03064</ele>
        <time>2011-05-15T09:02:03Z</time>
      </trkpt>
      <trkpt lat="43.46915" lon="-0.62517">
        <ele>214.51123</ele>
        <time>2011-05-15T09:02:09Z</time>
      </trkpt>
      <trkpt lat="43.46909" lon="-0.62512">
        <ele>214.03064</ele>
        <time>2011-05-15T09:02:11Z</time>
      </trkpt>
      <trkpt lat="43.46908" lon="-0.62492">
        <ele>214.03064</ele>
        <time>2011-05-15T09:02:15Z</time>
      </trkpt>
      <trkpt lat="43.4694" lon="-0.62424">
        <ele>214.51123</ele>
        <time>2011-05-15T09:02:27Z</time>
      </trkpt>
      <trkpt lat="43.46976" lon="-0.62344">
        <ele>213.550049</ele>
        <time>2011-05-15T09:02:44Z</time>
      </trkpt>
      <trkpt lat="43.46994" lon="-0.62301">
        <ele>213.069336</ele>
        <time>2011-05-15T09:02:56Z</time>
      </trkpt>
      <trkpt lat="43.47027" lon="-0.62271">
        <ele>211.146729</ele>
        <time>2011-05-15T09:03:08Z</time>
      </trkpt>
      <trkpt lat="43.47037" lon="-0.62261">
        <ele>209.704834</ele>
        <time>2011-05-15T09:03:11Z</time>
      </trkpt>
      <trkpt lat="43.47071" lon="-0.62238">
        <ele>207.782104</ele>
        <time>2011-05-15T09:03:21Z</time>
      </trkpt>
      <trkpt lat="43.47079" lon="-0.62229">
        <ele>207.301392</ele>
        <time>2011-05-15T09:03:25Z</time>
      </trkpt>
      <trkpt lat="43.47081" lon="-0.62224">
        <ele>208.262817</ele>
        <time>2011-05-15T09:03:28Z</time>
      </trkpt>
      <trkpt lat="43.47078" lon="-0.62219">
        <ele>206.820679</ele>
        <time>2011-05-15T09:03:31Z</time>
      </trkpt>
      <trkpt lat="43.47076" lon="-0.62215">
        <ele>205.859497</ele>
        <time>2011-05-15T09:03:33Z</time>
      </trkpt>
      <trkpt lat="43.47065" lon="-0.62212">
        <ele>206.340088</ele>
        <time>2011-05-15T09:03:38Z</time>
      </trkpt>
      <trkpt lat="43.47044" lon="-0.62185">
        <ele>207.782104</ele>
        <time>2011-05-15T09:03:49Z</time>
      </trkpt>
      <trkpt lat="43.47038" lon="-0.62167">
        <ele>207.782104</ele>
        <time>2011-05-15T09:03:53Z</time>
      </trkpt>
      <trkpt lat="43.47024" lon="-0.62139">
        <ele>206.340088</ele>
        <time>2011-05-15T09:04:00Z</time>
      </trkpt>
      <trkpt lat="43.47016" lon="-0.62096">
        <ele>202.494873</ele>
        <time>2011-05-15T09:04:07Z</time>
      </trkpt>
      <trkpt lat="43.47013" lon="-0.62076">
        <ele>200.572266</ele>
        <time>2011-05-15T09:04:11Z</time>
      </trkpt>
      <trkpt lat="43.4701" lon="-0.62072">
        <ele>200.091675</ele>
        <time>2011-05-15T09:04:13Z</time>
      </trkpt>
      <trkpt lat="43.47" lon="-0.62065">
        <ele>199.130127</ele>
        <time>2011-05-15T09:04:17Z</time>
      </trkpt>
      <trkpt lat="43.46991" lon="-0.62039">
        <ele>194.804321</ele>
        <time>2011-05-15T09:04:26Z</time>
      </trkpt>
      <trkpt lat="43.46989" lon="-0.62032">
        <ele>193.843018</ele>
        <time>2011-05-15T09:04:28Z</time>
      </trkpt>
      <trkpt lat="43.46989" lon="-0.62025">
        <ele>193.362305</ele>
        <time>2011-05-15T09:04:30Z</time>
      </trkpt>
      <trkpt lat="43.46991" lon="-0.62005">
        <ele>190.958984</ele>
        <time>2011-05-15T09:04:34Z</time>
      </trkpt>
      <trkpt lat="43.47006" lon="-0.61973">
        <ele>187.59436</ele>
        <time>2011-05-15T09:04:43Z</time>
      </trkpt>
      <trkpt lat="43.47013" lon="-0.6195">
        <ele>183.268433</ele>
        <time>2011-05-15T09:04:49Z</time>
      </trkpt>
      <trkpt lat="43.47022" lon="-0.61941">
        <ele>180.384521</ele>
        <time>2011-05-15T09:04:53Z</time>
      </trkpt>
      <trkpt lat="43.47031" lon="-0.6192">
        <ele>178.461914</ele>
        <time>2011-05-15T09:04:58Z</time>
      </trkpt>
      <trkpt lat="43.47024" lon="-0.61911">
        <ele>177.02002</ele>
        <time>2011-05-15T09:05:01Z</time>
      </trkpt>
      <trkpt lat="43.47015" lon="-0.61899">
        <ele>174.616577</ele>
        <time>2011-05-15T09:05:09Z</time>
      </trkpt>
      <trkpt lat="43.47004" lon="-0.61884">
        <ele>171.732666</ele>
        <time>2011-05-15T09:05:19Z</time>
      </trkpt>
      <trkpt lat="43.47003" lon="-0.61881">
        <ele>171.732666</ele>
        <time>2011-05-15T09:05:20Z</time>
      </trkpt>
      <trkpt lat="43.47003" lon="-0.61877">
        <ele>171.252075</ele>
        <time>2011-05-15T09:05:21Z</time>
      </trkpt>
      <trkpt lat="43.47017" lon="-0.61852">
        <ele>168.368042</ele>
        <time>2011-05-15T09:05:32Z</time>
      </trkpt>
      <trkpt lat="43.47042" lon="-0.61824">
        <ele>167.887329</ele>
        <time>2011-05-15T09:05:42Z</time>
      </trkpt>
      <trkpt lat="43.47045" lon="-0.6182">
        <ele>167.406738</ele>
        <time>2011-05-15T09:05:43Z</time>
      </trkpt>
      <trkpt lat="43.4705" lon="-0.6181">
        <ele>166.926025</ele>
        <time>2011-05-15T09:05:45Z</time>
      </trkpt>
      <trkpt lat="43.47053" lon="-0.61793">
        <ele>164.522705</ele>
        <time>2011-05-15T09:05:52Z</time>
      </trkpt>
      <trkpt lat="43.47028" lon="-0.61778">
        <ele>163.080811</ele>
        <time>2011-05-15T09:05:59Z</time>
      </trkpt>
      <trkpt lat="43.47" lon="-0.6176">
        <ele>160.196899</ele>
        <time>2011-05-15T09:06:06Z</time>
      </trkpt>
      <trkpt lat="43.46987" lon="-0.61752">
        <ele>159.716187</ele>
        <time>2011-05-15T09:06:09Z</time>
      </trkpt>
      <trkpt lat="43.46985" lon="-0.61731">
        <ele>157.312866</ele>
        <time>2011-05-15T09:06:13Z</time>
      </trkpt>
      <trkpt lat="43.46988" lon="-0.61713">
        <ele>156.832153</ele>
        <time>2011-05-15T09:06:16Z</time>
      </trkpt>
      <trkpt lat="43.46997" lon="-0.61654">
        <ele>155.870972</ele>
        <time>2011-05-15T09:06:25Z</time>
      </trkpt>
      <trkpt lat="43.46998" lon="-0.61618">
        <ele>153.948364</ele>
        <time>2011-05-15T09:06:30Z</time>
      </trkpt>
      <trkpt lat="43.46994" lon="-0.6159">
        <ele>153.467651</ele>
        <time>2011-05-15T09:06:34Z</time>
      </trkpt>
      <trkpt lat="43.47001" lon="-0.61562">
        <ele>152.506348</ele>
        <time>2011-05-15T09:06:39Z</time>
      </trkpt>
      <trkpt lat="43.47021" lon="-0.61541">
        <ele>151.544922</ele>
        <time>2011-05-15T09:06:45Z</time>
      </trkpt>
      <trkpt lat="43.47028" lon="-0.6153">
        <ele>152.025757</ele>
        <time>2011-05-15T09:06:49Z</time>
      </trkpt>
      <trkpt lat="43.47077" lon="-0.61533">
        <ele>152.506348</ele>
        <time>2011-05-15T09:06:59Z</time>
      </trkpt>
      <trkpt lat="43.47171" lon="-0.61518">
        <ele>150.583618</ele>
        <time>2011-05-15T09:07:13Z</time>
      </trkpt>
      <trkpt lat="43.47179" lon="-0.61515">
        <ele>150.103027</ele>
        <time>2011-05-15T09:07:14Z</time>
      </trkpt>
      <trkpt lat="43.47251" lon="-0.61482">
        <ele>146.257812</ele>
        <time>2011-05-15T09:07:23Z</time>
      </trkpt>
      <trkpt lat="43.47387" lon="-0.61418">
        <ele>142.412476</ele>
        <time>2011-05-15T09:07:39Z</time>
      </trkpt>
      <trkpt lat="43.47396" lon="-0.61415">
        <ele>142.893066</ele>
        <time>2011-05-15T09:07:40Z</time>
      </trkpt>
      <trkpt lat="43.47562" lon="-0.61337">
        <ele>140.489868</ele>
        <time>2011-05-15T09:07:59Z</time>
      </trkpt>
      <trkpt lat="43.47578" lon="-0.6133">
        <ele>139.528442</ele>
        <time>2011-05-15T09:08:01Z</time>
      </trkpt>
      <trkpt lat="43.47588" lon="-0.61286">
        <ele>138.567261</ele>
        <time>2011-05-15T09:08:06Z</time>
      </trkpt>
      <trkpt lat="43.47576" lon="-0.61197">
        <ele>136.644653</ele>
        <time>2011-05-15T09:08:14Z</time>
      </trkpt>
      <trkpt lat="43.47555" lon="-0.61031">
        <ele>137.605835</ele>
        <time>2011-05-15T09:08:31Z</time>
      </trkpt>
      <trkpt lat="43.47553" lon="-0.60994">
        <ele>139.528442</ele>
        <time>2011-05-15T09:08:37Z</time>
      </trkpt>
      <trkpt lat="43.47565" lon="-0.60924">
        <ele>140.489868</ele>
        <time>2011-05-15T09:08:50Z</time>
      </trkpt>
      <trkpt lat="43.47556" lon="-0.60882">
        <ele>141.931763</ele>
        <time>2011-05-15T09:08:58Z</time>
      </trkpt>
      <trkpt lat="43.47519" lon="-0.60816">
        <ele>144.815796</ele>
        <time>2011-05-15T09:09:14Z</time>
      </trkpt>
      <trkpt lat="43.47506" lon="-0.6074">
        <ele>146.257812</ele>
        <time>2011-05-15T09:09:27Z</time>
      </trkpt>
      <trkpt lat="43.47492" lon="-0.60624">
        <ele>144.335205</ele>
        <time>2011-05-15T09:09:42Z</time>
      </trkpt>
      <trkpt lat="43.4748" lon="-0.60574">
        <ele>142.893066</ele>
        <time>2011-05-15T09:09:47Z</time>
      </trkpt>
      <trkpt lat="43.47461" lon="-0.6054">
        <ele>141.931763</ele>
        <time>2011-05-15T09:09:51Z</time>
      </trkpt>
      <trkpt lat="43.47365" lon="-0.6044">
        <ele>143.373657</ele>
        <time>2011-05-15T09:10:09Z</time>
      </trkpt>
      <trkpt lat="43.47352" lon="-0.60421">
        <ele>143.373657</ele>
        <time>2011-05-15T09:10:12Z</time>
      </trkpt>
      <trkpt lat="43.47313" lon="-0.60295">
        <ele>140.009155</ele>
        <time>2011-05-15T09:10:26Z</time>
      </trkpt>
      <trkpt lat="43.47302" lon="-0.60261">
        <ele>139.528442</ele>
        <time>2011-05-15T09:10:30Z</time>
      </trkpt>
      <trkpt lat="43.47274" lon="-0.6026">
        <ele>139.528442</ele>
        <time>2011-05-15T09:10:36Z</time>
      </trkpt>
      <trkpt lat="43.4726" lon="-0.60278">
        <ele>139.528442</ele>
        <time>2011-05-15T09:10:39Z</time>
      </trkpt>
      <trkpt lat="43.47245" lon="-0.6029">
        <ele>140.009155</ele>
        <time>2011-05-15T09:10:42Z</time>
      </trkpt>
      <trkpt lat="43.47218" lon="-0.603">
        <ele>140.970459</ele>
        <time>2011-05-15T09:10:47Z</time>
      </trkpt>
      <trkpt lat="43.47179" lon="-0.60323">
        <ele>144.335205</ele>
        <time>2011-05-15T09:10:58Z</time>
      </trkpt>
      <trkpt lat="43.47143" lon="-0.60339">
        <ele>147.218994</ele>
        <time>2011-05-15T09:11:11Z</time>
      </trkpt>
      <trkpt lat="43.47114" lon="-0.60372">
        <ele>150.583618</ele>
        <time>2011-05-15T09:11:26Z</time>
      </trkpt>
      <trkpt lat="43.47092" lon="-0.60409">
        <ele>153.467651</ele>
        <time>2011-05-15T09:11:42Z</time>
      </trkpt>
      <trkpt lat="43.47085" lon="-0.60424">
        <ele>155.870972</ele>
        <time>2011-05-15T09:11:49Z</time>
      </trkpt>
      <trkpt lat="43.47083" lon="-0.60435">
        <ele>157.312866</ele>
        <time>2011-05-15T09:11:54Z</time>
      </trkpt>
      <trkpt lat="43.47078" lon="-0.60453">
        <ele>160.67749</ele>
        <time>2011-05-15T09:12:03Z</time>
      </trkpt>
      <trkpt lat="43.47053" lon="-0.60496">
        <ele>162.600098</ele>
        <time>2011-05-15T09:12:22Z</time>
      </trkpt>
      <trkpt lat="43.47024" lon="-0.60508">
        <ele>162.600098</ele>
        <time>2011-05-15T09:12:33Z</time>
      </trkpt>
      <trkpt lat="43.47015" lon="-0.60512">
        <ele>163.080811</ele>
        <time>2011-05-15T09:12:36Z</time>
      </trkpt>
      <trkpt lat="43.47006" lon="-0.60528">
        <ele>161.638916</ele>
        <time>2011-05-15T09:12:39Z</time>
      </trkpt>
      <trkpt lat="43.46962" lon="-0.60597">
        <ele>160.196899</ele>
        <time>2011-05-15T09:12:51Z</time>
      </trkpt>
      <trkpt lat="43.46928" lon="-0.60625">
        <ele>162.600098</ele>
        <time>2011-05-15T09:13:06Z</time>
      </trkpt>
      <trkpt lat="43.46912" lon="-0.60639">
        <ele>165.964722</ele>
        <time>2011-05-15T09:13:17Z</time>
      </trkpt>
      <trkpt lat="43.46905" lon="-0.60641">
        <ele>166.445312</ele>
        <time>2011-05-15T09:13:22Z</time>
      </trkpt>
      <trkpt lat="43.46894" lon="-0.60657">
        <ele>169.329468</ele>
        <time>2011-05-15T09:13:33Z</time>
      </trkpt>
      <trkpt lat="43.46896" lon="-0.60702">
        <ele>170.290649</ele>
        <time>2011-05-15T09:13:48Z</time>
      </trkpt>
      <trkpt lat="43.46894" lon="-0.60731">
        <ele>173.655273</ele>
        <time>2011-05-15T09:13:57Z</time>
      </trkpt>
      <trkpt lat="43.4689" lon="-0.60797">
        <ele>175.577881</ele>
        <time>2011-05-15T09:14:15Z</time>
      </trkpt>
      <trkpt lat="43.4687" lon="-0.60846">
        <ele>178.461914</ele>
        <time>2011-05-15T09:14:32Z</time>
      </trkpt>
      <trkpt lat="43.46852" lon="-0.6088">
        <ele>181.826416</ele>
        <time>2011-05-15T09:14:47Z</time>
      </trkpt>
      <trkpt lat="43.46833" lon="-0.60911">
        <ele>185.671753</ele>
        <time>2011-05-15T09:15:03Z</time>
      </trkpt>
      <trkpt lat="43.46812" lon="-0.60914">
        <ele>187.11377</ele>
        <time>2011-05-15T09:15:18Z</time>
      </trkpt>
      <trkpt lat="43.46803" lon="-0.60889">
        <ele>190.478394</ele>
        <time>2011-05-15T09:15:30Z</time>
      </trkpt>
      <trkpt lat="43.46802" lon="-0.60887">
        <ele>190.478394</ele>
        <time>2011-05-15T09:15:31Z</time>
      </trkpt>
      <trkpt lat="43.46786" lon="-0.60849">
        <ele>193.843018</ele>
        <time>2011-05-15T09:15:50Z</time>
      </trkpt>
      <trkpt lat="43.46768" lon="-0.60816">
        <ele>197.20752</ele>
        <time>2011-05-15T09:16:07Z</time>
      </trkpt>
      <trkpt lat="43.46743" lon="-0.60789">
        <ele>200.091675</ele>
        <time>2011-05-15T09:16:24Z</time>
      </trkpt>
      <trkpt lat="43.46719" lon="-0.60754">
        <ele>203.456177</ele>
        <time>2011-05-15T09:16:40Z</time>
      </trkpt>
      <trkpt lat="43.46689" lon="-0.60719">
        <ele>205.859497</ele>
        <time>2011-05-15T09:16:56Z</time>
      </trkpt>
      <trkpt lat="43.46642" lon="-0.60702">
        <ele>209.224121</ele>
        <time>2011-05-15T09:17:13Z</time>
      </trkpt>
      <trkpt lat="43.46591" lon="-0.60712">
        <ele>209.224121</ele>
        <time>2011-05-15T09:17:28Z</time>
      </trkpt>
      <trkpt lat="43.46527" lon="-0.60753">
        <ele>211.146729</ele>
        <time>2011-05-15T09:17:45Z</time>
      </trkpt>
      <trkpt lat="43.46492" lon="-0.60779">
        <ele>211.627441</ele>
        <time>2011-05-15T09:17:57Z</time>
      </trkpt>
      <trkpt lat="43.46488" lon="-0.60765">
        <ele>211.627441</ele>
        <time>2011-05-15T09:18:03Z</time>
      </trkpt>
      <trkpt lat="43.46485" lon="-0.60666">
        <ele>213.069336</ele>
        <time>2011-05-15T09:18:18Z</time>
      </trkpt>
      <trkpt lat="43.46444" lon="-0.60509">
        <ele>214.991943</ele>
        <time>2011-05-15T09:18:41Z</time>
      </trkpt>
      <trkpt lat="43.46404" lon="-0.60404">
        <ele>214.51123</ele>
        <time>2011-05-15T09:18:56Z</time>
      </trkpt>
      <trkpt lat="43.4633" lon="-0.60277">
        <ele>213.550049</ele>
        <time>2011-05-15T09:19:16Z</time>
      </trkpt>
      <trkpt lat="43.46255" lon="-0.60197">
        <ele>214.03064</ele>
        <time>2011-05-15T09:19:32Z</time>
      </trkpt>
      <trkpt lat="43.46162" lon="-0.60136">
        <ele>212.588623</ele>
        <time>2011-05-15T09:19:46Z</time>
      </trkpt>
      <trkpt lat="43.46147" lon="-0.6013">
        <ele>212.108032</ele>
        <time>2011-05-15T09:19:48Z</time>
      </trkpt>
      <trkpt lat="43.46021" lon="-0.60137">
        <ele>210.185425</ele>
        <time>2011-05-15T09:20:05Z</time>
      </trkpt>
      <trkpt lat="43.45949" lon="-0.60133">
        <ele>210.666016</ele>
        <time>2011-05-15T09:20:16Z</time>
      </trkpt>
      <trkpt lat="43.45863" lon="-0.6011">
        <ele>213.069336</ele>
        <time>2011-05-15T09:20:32Z</time>
      </trkpt>
      <trkpt lat="43.45839" lon="-0.6011">
        <ele>212.588623</ele>
        <time>2011-05-15T09:20:37Z</time>
      </trkpt>
      <trkpt lat="43.45756" lon="-0.60145">
        <ele>214.03064</ele>
        <time>2011-05-15T09:20:56Z</time>
      </trkpt>
      <trkpt lat="43.45713" lon="-0.60175">
        <ele>216.914673</ele>
        <time>2011-05-15T09:21:09Z</time>
      </trkpt>
      <trkpt lat="43.45673" lon="-0.60219">
        <ele>220.759888</ele>
        <time>2011-05-15T09:21:26Z</time>
      </trkpt>
      <trkpt lat="43.45631" lon="-0.60274">
        <ele>222.201782</ele>
        <time>2011-05-15T09:21:45Z</time>
      </trkpt>
      <trkpt lat="43.456" lon="-0.6033">
        <ele>224.124512</ele>
        <time>2011-05-15T09:22:00Z</time>
      </trkpt>
      <trkpt lat="43.45583" lon="-0.60383">
        <ele>225.085938</ele>
        <time>2011-05-15T09:22:10Z</time>
      </trkpt>
      <trkpt lat="43.45578" lon="-0.60431">
        <ele>226.047119</ele>
        <time>2011-05-15T09:22:19Z</time>
      </trkpt>
      <trkpt lat="43.45579" lon="-0.60471">
        <ele>226.047119</ele>
        <time>2011-05-15T09:22:26Z</time>
      </trkpt>
      <trkpt lat="43.45594" lon="-0.60525">
        <ele>225.566528</ele>
        <time>2011-05-15T09:22:36Z</time>
      </trkpt>
      <trkpt lat="43.45598" lon="-0.60555">
        <ele>224.124512</ele>
        <time>2011-05-15T09:22:41Z</time>
      </trkpt>
      <trkpt lat="43.45597" lon="-0.60577">
        <ele>223.163208</ele>
        <time>2011-05-15T09:22:44Z</time>
      </trkpt>
      <trkpt lat="43.45595" lon="-0.60593">
        <ele>222.682495</ele>
        <time>2011-05-15T09:22:46Z</time>
      </trkpt>
      <trkpt lat="43.45593" lon="-0.6064">
        <ele>221.721191</ele>
        <time>2011-05-15T09:22:51Z</time>
      </trkpt>
      <trkpt lat="43.45593" lon="-0.60721">
        <ele>220.759888</ele>
        <time>2011-05-15T09:23:00Z</time>
      </trkpt>
      <trkpt lat="43.456" lon="-0.60814">
        <ele>220.279175</ele>
        <time>2011-05-15T09:23:11Z</time>
      </trkpt>
      <trkpt lat="43.45622" lon="-0.6086">
        <ele>221.721191</ele>
        <time>2011-05-15T09:23:20Z</time>
      </trkpt>
      <trkpt lat="43.45638" lon="-0.60896">
        <ele>222.201782</ele>
        <time>2011-05-15T09:23:27Z</time>
      </trkpt>
      <trkpt lat="43.4567" lon="-0.60975">
        <ele>221.240601</ele>
        <time>2011-05-15T09:23:42Z</time>
      </trkpt>
      <trkpt lat="43.45675" lon="-0.60995">
        <ele>218.83728</ele>
        <time>2011-05-15T09:23:47Z</time>
      </trkpt>
      <trkpt lat="43.45671" lon="-0.60997">
        <ele>219.798584</ele>
        <time>2011-05-15T09:23:48Z</time>
      </trkpt>
      <trkpt lat="43.45648" lon="-0.61001">
        <ele>219.798584</ele>
        <time>2011-05-15T09:23:53Z</time>
      </trkpt>
      <trkpt lat="43.45641" lon="-0.61055">
        <ele>216.43396</ele>
        <time>2011-05-15T09:24:02Z</time>
      </trkpt>
      <trkpt lat="43.45643" lon="-0.61066">
        <ele>214.991943</ele>
        <time>2011-05-15T09:24:04Z</time>
      </trkpt>
      <trkpt lat="43.45636" lon="-0.61082">
        <ele>213.550049</ele>
        <time>2011-05-15T09:24:08Z</time>
      </trkpt>
      <trkpt lat="43.45623" lon="-0.61099">
        <ele>213.550049</ele>
        <time>2011-05-15T09:24:12Z</time>
      </trkpt>
      <trkpt lat="43.45601" lon="-0.6115">
        <ele>212.108032</ele>
        <time>2011-05-15T09:24:21Z</time>
      </trkpt>
      <trkpt lat="43.45586" lon="-0.61184">
        <ele>210.185425</ele>
        <time>2011-05-15T09:24:25Z</time>
      </trkpt>
      <trkpt lat="43.45578" lon="-0.6122">
        <ele>204.898071</ele>
        <time>2011-05-15T09:24:30Z</time>
      </trkpt>
      <trkpt lat="43.45575" lon="-0.61232">
        <ele>202.494873</ele>
        <time>2011-05-15T09:24:33Z</time>
      </trkpt>
      <trkpt lat="43.45575" lon="-0.61236">
        <ele>201.533569</ele>
        <time>2011-05-15T09:24:35Z</time>
      </trkpt>
      <trkpt lat="43.45579" lon="-0.61237">
        <ele>200.572266</ele>
        <time>2011-05-15T09:24:37Z</time>
      </trkpt>
      <trkpt lat="43.45593" lon="-0.61234">
        <ele>197.20752</ele>
        <time>2011-05-15T09:24:41Z</time>
      </trkpt>
      <trkpt lat="43.45599" lon="-0.61234">
        <ele>196.246338</ele>
        <time>2011-05-15T09:24:42Z</time>
      </trkpt>
      <trkpt lat="43.45619" lon="-0.61228">
        <ele>193.362305</ele>
        <time>2011-05-15T09:24:45Z</time>
      </trkpt>
      <trkpt lat="43.4566" lon="-0.61208">
        <ele>189.997681</ele>
        <time>2011-05-15T09:24:52Z</time>
      </trkpt>
      <trkpt lat="43.45684" lon="-0.61201">
        <ele>186.152466</ele>
        <time>2011-05-15T09:24:56Z</time>
      </trkpt>
      <trkpt lat="43.45715" lon="-0.61196">
        <ele>183.268433</ele>
        <time>2011-05-15T09:25:01Z</time>
      </trkpt>
      <trkpt lat="43.45726" lon="-0.61193">
        <ele>182.307129</ele>
        <time>2011-05-15T09:25:03Z</time>
      </trkpt>
      <trkpt lat="43.45767" lon="-0.61204">
        <ele>180.384521</ele>
        <time>2011-05-15T09:25:13Z</time>
      </trkpt>
      <trkpt lat="43.45788" lon="-0.61229">
        <ele>179.423218</ele>
        <time>2011-05-15T09:25:18Z</time>
      </trkpt>
      <trkpt lat="43.458" lon="-0.61242">
        <ele>176.539307</ele>
        <time>2011-05-15T09:25:21Z</time>
      </trkpt>
      <trkpt lat="43.45812" lon="-0.61257">
        <ele>175.577881</ele>
        <time>2011-05-15T09:25:25Z</time>
      </trkpt>
      <trkpt lat="43.45829" lon="-0.61274">
        <ele>172.69397</ele>
        <time>2011-05-15T09:25:31Z</time>
      </trkpt>
      <trkpt lat="43.45833" lon="-0.61277">
        <ele>172.69397</ele>
        <time>2011-05-15T09:25:32Z</time>
      </trkpt>
      <trkpt lat="43.45843" lon="-0.61285">
        <ele>171.252075</ele>
        <time>2011-05-15T09:25:35Z</time>
      </trkpt>
      <trkpt lat="43.45851" lon="-0.61291">
        <ele>169.329468</ele>
        <time>2011-05-15T09:25:38Z</time>
      </trkpt>
      <trkpt lat="43.45865" lon="-0.61301">
        <ele>166.445312</ele>
        <time>2011-05-15T09:25:43Z</time>
      </trkpt>
      <trkpt lat="43.45875" lon="-0.61307">
        <ele>164.522705</ele>
        <time>2011-05-15T09:25:47Z</time>
      </trkpt>
      <trkpt lat="43.45888" lon="-0.61314">
        <ele>161.158203</ele>
        <time>2011-05-15T09:25:51Z</time>
      </trkpt>
      <trkpt lat="43.45894" lon="-0.61318">
        <ele>160.196899</ele>
        <time>2011-05-15T09:25:53Z</time>
      </trkpt>
      <trkpt lat="43.45911" lon="-0.61326">
        <ele>156.832153</ele>
        <time>2011-05-15T09:25:59Z</time>
      </trkpt>
      <trkpt lat="43.45914" lon="-0.61327">
        <ele>156.832153</ele>
        <time>2011-05-15T09:26:00Z</time>
      </trkpt>
      <trkpt lat="43.45928" lon="-0.61331">
        <ele>153.467651</ele>
        <time>2011-05-15T09:26:03Z</time>
      </trkpt>
      <trkpt lat="43.45947" lon="-0.61335">
        <ele>149.622314</ele>
        <time>2011-05-15T09:26:06Z</time>
      </trkpt>
      <trkpt lat="43.45963" lon="-0.61338">
        <ele>145.7771</ele>
        <time>2011-05-15T09:26:08Z</time>
      </trkpt>
      <trkpt lat="43.45977" lon="-0.61343">
        <ele>143.373657</ele>
        <time>2011-05-15T09:26:10Z</time>
      </trkpt>
      <trkpt lat="43.45989" lon="-0.6135">
        <ele>141.45105</ele>
        <time>2011-05-15T09:26:13Z</time>
      </trkpt>
      <trkpt lat="43.45987" lon="-0.61351">
        <ele>140.970459</ele>
        <time>2011-05-15T09:26:17Z</time>
      </trkpt>
      <trkpt lat="43.4597" lon="-0.61381">
        <ele>140.489868</ele>
        <time>2011-05-15T09:26:28Z</time>
      </trkpt>
      <trkpt lat="43.45966" lon="-0.61388">
        <ele>140.489868</ele>
        <time>2011-05-15T09:26:30Z</time>
      </trkpt>
      <trkpt lat="43.45953" lon="-0.61422">
        <ele>139.528442</ele>
        <time>2011-05-15T09:26:36Z</time>
      </trkpt>
      <trkpt lat="43.4594" lon="-0.61451">
        <ele>138.086548</ele>
        <time>2011-05-15T09:26:41Z</time>
      </trkpt>
      <trkpt lat="43.45948" lon="-0.61466">
        <ele>136.16394</ele>
        <time>2011-05-15T09:26:51Z</time>
      </trkpt>
      <trkpt lat="43.4595" lon="-0.61471">
        <ele>137.605835</ele>
        <time>2011-05-15T09:26:54Z</time>
      </trkpt>
      <trkpt lat="43.45929" lon="-0.61523">
        <ele>137.125244</ele>
        <time>2011-05-15T09:27:05Z</time>
      </trkpt>
      <trkpt lat="43.45906" lon="-0.61592">
        <ele>135.202515</ele>
        <time>2011-05-15T09:27:18Z</time>
      </trkpt>
      <trkpt lat="43.45907" lon="-0.616">
        <ele>135.202515</ele>
        <time>2011-05-15T09:27:27Z</time>
      </trkpt>
      <trkpt lat="43.45909" lon="-0.61602">
        <ele>135.683105</ele>
        <time>2011-05-15T09:27:37Z</time>
      </trkpt>
      <trkpt lat="43.45908" lon="-0.61604">
        <ele>136.16394</ele>
        <time>2011-05-15T09:27:39Z</time>
      </trkpt>
      <trkpt lat="43.45903" lon="-0.61609">
        <ele>134.721924</ele>
        <time>2011-05-15T09:27:54Z</time>
      </trkpt>
      <trkpt lat="43.45902" lon="-0.6161">
        <ele>136.16394</ele>
        <time>2011-05-15T09:28:03Z</time>
      </trkpt>
    </trkseg>
  </trk>
</gpx>